Observation data for Crowell on 02/24/2021      Previous  Date  Next       Current Mesonet Observations  Soil Data  Daily Summary Page  Observations in Plain Language
KCR1 240600Z 23013KT 18/04 A2976 RMK A01 T01790044  RH  041%=      5-min Rain = 0
KCR1 240601Z 23012G18KT 18/04 A2976 RMK A01 T01790044  RH  041%=      5-min Rain = 0
KCR1 240602Z 24011KT 18/04 A2976 RMK A01 T01790043  RH  041%=      5-min Rain = 0
KCR1 240603Z 23012G17KT 18/04 A2977 RMK A01 T01780043  RH  041%=      5-min Rain = 0
KCR1 240604Z 23012KT 18/04 A2977 RMK A01 T01780042  RH  041%=      5-min Rain = 0
KCR1 240605Z 24012KT 18/04 A2977 RMK A01 T01780042  RH  040%=      5-min Rain = 0
KCR1 240606Z 24011KT 18/04 A2977 RMK A01 T01760041  RH  041%=      5-min Rain = 0
KCR1 240607Z 24011KT 18/04 A2977 RMK A01 T01750041  RH  041%=      5-min Rain = 0
KCR1 240608Z 24011KT 17/04 A2977 RMK A01 T01740040  RH  041%=      5-min Rain = 0
KCR1 240609Z 24014KT 17/04 A2977 RMK A01 T01740040  RH  041%=      5-min Rain = 0
KCR1 240610Z 24013KT 18/04 A2977 RMK A01 T01750039  RH  040%=      5-min Rain = 0
KCR1 240611Z 24011KT 18/04 A2977 RMK A01 T01750038  RH  040%=      5-min Rain = 0
KCR1 240612Z 24012KT 18/04 A2977 RMK A01 T01760038  RH  040%=      5-min Rain = 0
KCR1 240613Z 23011KT 18/04 A2977 RMK A01 T01760038  RH  040%=      5-min Rain = 0
KCR1 240614Z 24012KT 18/04 A2977 RMK A01 T01750037  RH  040%=      5-min Rain = 0
KCR1 240615Z 23013KT 18/04 A2977 RMK A01 T01750037  RH  040%=      5-min Rain = 0
KCR1 240616Z 23013KT 17/04 A2977 RMK A01 T01740036  RH  040%=      5-min Rain = 0
KCR1 240617Z 23012KT 17/04 A2977 RMK A01 T01740036  RH  040%=      5-min Rain = 0
KCR1 240618Z 24012KT 17/04 A2977 RMK A01 T01740036  RH  040%=      5-min Rain = 0
KCR1 240619Z 24009KT 17/04 A2977 RMK A01 T01730036  RH  040%=      5-min Rain = 0
KCR1 240620Z 24010KT 17/04 A2977 RMK A01 T01700035  RH  041%=      5-min Rain = 0
KCR1 240621Z 24010KT 17/04 A2977 RMK A01 T01680035  RH  041%=      5-min Rain = 0
KCR1 240622Z 24009KT 17/03 A2977 RMK A01 T01660034  RH  042%=      5-min Rain = 0
KCR1 240623Z 25009KT 16/03 A2977 RMK A01 T01640034  RH  042%=      5-min Rain = 0
KCR1 240624Z 25007KT 16/03 A2977 RMK A01 T01640033  RH  042%=      5-min Rain = 0
KCR1 240625Z 25008KT 16/03 A2977 RMK A01 T01630032  RH  042%=      5-min Rain = 0
KCR1 240626Z 25008KT 16/03 A2977 RMK A01 T01620032  RH  042%=      5-min Rain = 0
KCR1 240627Z 24009KT 16/03 A2977 RMK A01 T01610031  RH  042%=      5-min Rain = 0
KCR1 240628Z 24009KT 16/03 A2977 RMK A01 T01600031  RH  042%=      5-min Rain = 0
KCR1 240629Z 24009KT 16/03 A2977 RMK A01 T01590030  RH  042%=      5-min Rain = 0
KCR1 240630Z 24009KT 16/03 A2977 RMK A01 T01580030  RH  042%=      5-min Rain = 0
KCR1 240631Z 24009KT 16/03 A2977 RMK A01 T01570028  RH  042%=      5-min Rain = 0
KCR1 240632Z 24011KT 16/03 A2977 RMK A01 T01580028  RH  042%=      5-min Rain = 0
KCR1 240633Z 24010KT 16/03 A2977 RMK A01 T01590028  RH  041%=      5-min Rain = 0
KCR1 240634Z 24010KT 16/03 A2977 RMK A01 T01580027  RH  041%=      5-min Rain = 0
KCR1 240635Z 24010KT 16/03 A2977 RMK A01 T01590027  RH  041%=      5-min Rain = 0
KCR1 240636Z 24010KT 16/03 A2977 RMK A01 T01580026  RH  041%=      5-min Rain = 0
KCR1 240637Z 24010KT 16/03 A2977 RMK A01 T01570026  RH  041%=      5-min Rain = 0
KCR1 240638Z 24009KT 16/03 A2977 RMK A01 T01560025  RH  041%=      5-min Rain = 0
KCR1 240639Z 24011KT 16/03 A2977 RMK A01 T01560025  RH  041%=      5-min Rain = 0
KCR1 240640Z 24010KT 16/02 A2977 RMK A01 T01560024  RH  041%=      5-min Rain = 0
KCR1 240641Z 24009KT 16/02 A2977 RMK A01 T01570024  RH  041%=      5-min Rain = 0
KCR1 240642Z 24008KT 16/02 A2977 RMK A01 T01570024  RH  041%=      5-min Rain = 0
KCR1 240643Z 23010KT 16/02 A2977 RMK A01 T01550024  RH  041%=      5-min Rain = 0
KCR1 240644Z 23011KT 16/02 A2977 RMK A01 T01550024  RH  041%=      5-min Rain = 0
KCR1 240645Z 23010KT 16/02 A2977 RMK A01 T01560024  RH  041%=      5-min Rain = 0
KCR1 240646Z 23011KT 16/03 A2977 RMK A01 T01550025  RH  041%=      5-min Rain = 0
KCR1 240647Z 23011KT 16/03 A2977 RMK A01 T01550025  RH  041%=      5-min Rain = 0
KCR1 240648Z 23014KT 16/03 A2976 RMK A01 T01570025  RH  041%=      5-min Rain = 0
KCR1 240649Z 23012KT 16/03 A2976 RMK A01 T01600027  RH  041%=      5-min Rain = 0
KCR1 240650Z 23011KT 16/03 A2976 RMK A01 T01610026  RH  040%=      5-min Rain = 0
KCR1 240651Z 23012KT 16/03 A2977 RMK A01 T01620027  RH  040%=      5-min Rain = 0
KCR1 240652Z 23011KT 16/03 A2977 RMK A01 T01620027  RH  040%=      5-min Rain = 0
KCR1 240653Z 24012KT 16/03 A2977 RMK A01 T01610027  RH  041%=      5-min Rain = 0
KCR1 240654Z 23014G19KT 16/03 A2977 RMK A01 T01610028  RH  041%=      5-min Rain = 0
KCR1 240655Z 24011G18KT 16/03 A2977 RMK A01 T01620029  RH  041%=      5-min Rain = 0
KCR1 240656Z 23011G16KT 16/03 A2977 RMK A01 T01630029  RH  041%=      5-min Rain = 0
KCR1 240657Z 23014KT 16/03 A2977 RMK A01 T01630029  RH  041%=      5-min Rain = 0
KCR1 240658Z 23014G19KT 17/03 A2977 RMK A01 T01650030  RH  041%=      5-min Rain = 0
KCR1 240659Z 23013KT 17/03 A2977 RMK A01 T01660030  RH  040%=      5-min Rain = 0
KCR1 240700Z 23014G19KT 17/03 A2977 RMK A01 T01660031  RH  040%=      5-min Rain = 0
KCR1 240701Z 23015G22KT 17/03 A2977 RMK A01 T01660031  RH  041%=      5-min Rain = 0
KCR1 240702Z 23016KT 17/03 A2977 RMK A01 T01660032  RH  041%=      5-min Rain = 0
KCR1 240703Z 23016KT 17/03 A2977 RMK A01 T01670032  RH  040%=      5-min Rain = 0
KCR1 240704Z 23014KT 17/03 A2977 RMK A01 T01680033  RH  040%=      5-min Rain = 0
KCR1 240705Z 24014KT 17/03 A2977 RMK A01 T01690033  RH  040%=      5-min Rain = 0
KCR1 240706Z 23015KT 17/03 A2977 RMK A01 T01680033  RH  041%=      5-min Rain = 0
KCR1 240707Z 24013KT 17/03 A2977 RMK A01 T01680034  RH  041%=      5-min Rain = 0
KCR1 240708Z 24017G22KT 17/03 A2977 RMK A01 T01670034  RH  041%=      5-min Rain = 0
KCR1 240709Z 24013G18KT 17/04 A2977 RMK A01 T01680035  RH  041%=      5-min Rain = 0
KCR1 240710Z 24014KT 17/04 A2977 RMK A01 T01670035  RH  041%=      5-min Rain = 0
KCR1 240711Z 24012KT 17/04 A2977 RMK A01 T01670036  RH  042%=      5-min Rain = 0
KCR1 240712Z 23013KT 17/04 A2977 RMK A01 T01660036  RH  042%=      5-min Rain = 0
KCR1 240713Z 23014KT 17/04 A2977 RMK A01 T01650036  RH  042%=      5-min Rain = 0
KCR1 240714Z 23015G21KT 17/04 A2977 RMK A01 T01660037  RH  042%=      5-min Rain = 0
KCR1 240715Z 23015KT 17/04 A2977 RMK A01 T01660037  RH  042%=      5-min Rain = 0
KCR1 240716Z 23014KT 17/04 A2977 RMK A01 T01660037  RH  042%=      5-min Rain = 0
KCR1 240717Z 24014G20KT 17/04 A2977 RMK A01 T01660037  RH  042%=      5-min Rain = 0
KCR1 240718Z 23015KT 17/04 A2977 RMK A01 T01660038  RH  042%=      5-min Rain = 0
KCR1 240719Z 24013KT 17/04 A2977 RMK A01 T01660038  RH  042%=      5-min Rain = 0
KCR1 240720Z 23014KT 17/04 A2977 RMK A01 T01660039  RH  043%=      5-min Rain = 0
KCR1 240721Z 23014KT 17/04 A2977 RMK A01 T01660039  RH  043%=      5-min Rain = 0
KCR1 240722Z 23015G21KT 17/04 A2977 RMK A01 T01660039  RH  043%=      5-min Rain = 0
KCR1 240723Z 23015G20KT 17/04 A2977 RMK A01 T01670040  RH  043%=      5-min Rain = 0
KCR1 240724Z 23014KT 17/04 A2977 RMK A01 T01670040  RH  043%=      5-min Rain = 0
KCR1 240725Z 23014KT 17/04 A2977 RMK A01 T01670040  RH  043%=      5-min Rain = 0
KCR1 240726Z 23014KT 17/04 A2977 RMK A01 T01660041  RH  043%=      5-min Rain = 0
KCR1 240727Z 24014KT 17/04 A2977 RMK A01 T01660041  RH  043%=      5-min Rain = 0
KCR1 240728Z 23013KT 17/04 A2977 RMK A01 T01660042  RH  044%=      5-min Rain = 0
KCR1 240729Z 23015KT 17/04 A2977 RMK A01 T01650041  RH  044%=      5-min Rain = 0
KCR1 240730Z 23014KT 17/04 A2977 RMK A01 T01660042  RH  044%=      5-min Rain = 0
KCR1 240731Z 24015KT 17/04 A2977 RMK A01 T01660042  RH  044%=      5-min Rain = 0
KCR1 240732Z 24012KT 17/04 A2977 RMK A01 T01650043  RH  044%=      5-min Rain = 0
KCR1 240733Z 24015G21KT 16/04 A2977 RMK A01 T01640043  RH  044%=      5-min Rain = 0
KCR1 240734Z 23012KT 16/04 A2977 RMK A01 T01640044  RH  045%=      5-min Rain = 0
KCR1 240735Z 23015G20KT 16/04 A2977 RMK A01 T01640044  RH  045%=      5-min Rain = 0
KCR1 240736Z 23013G18KT 16/04 A2977 RMK A01 T01640044  RH  045%=      5-min Rain = 0
KCR1 240737Z 24012KT 16/04 A2977 RMK A01 T01630044  RH  045%=      5-min Rain = 0
KCR1 240738Z 23014KT 16/04 A2977 RMK A01 T01620044  RH  045%=      5-min Rain = 0
KCR1 240739Z 24013G18KT 16/05 A2977 RMK A01 T01620045  RH  046%=      5-min Rain = 0
KCR1 240740Z 24014KT 16/05 A2977 RMK A01 T01610045  RH  046%=      5-min Rain = 0
KCR1 240741Z 24013KT 16/05 A2977 RMK A01 T01600045  RH  046%=      5-min Rain = 0
KCR1 240742Z 24014KT 16/05 A2977 RMK A01 T01600046  RH  047%=      5-min Rain = 0
KCR1 240743Z 24013KT 16/05 A2977 RMK A01 T01600046  RH  047%=      5-min Rain = 0
KCR1 240744Z 23012G17KT 16/05 A2977 RMK A01 T01600046  RH  047%=      5-min Rain = 0
KCR1 240745Z 24013G19KT 16/05 A2977 RMK A01 T01600046  RH  047%=      5-min Rain = 0
KCR1 240746Z 25014KT 16/05 A2978 RMK A01 T01600047  RH  047%=      5-min Rain = 0
KCR1 240747Z 24014KT 16/05 A2978 RMK A01 T01590046  RH  047%=      5-min Rain = 0
KCR1 240748Z 24015KT 16/05 A2978 RMK A01 T01590046  RH  047%=      5-min Rain = 0
KCR1 240749Z 24013KT 16/05 A2978 RMK A01 T01600047  RH  047%=      5-min Rain = 0
KCR1 240750Z 24014KT 16/05 A2978 RMK A01 T01600047  RH  047%=      5-min Rain = 0
KCR1 240751Z 24012KT 16/05 A2978 RMK A01 T01600047  RH  047%=      5-min Rain = 0
KCR1 240752Z 24012KT 16/05 A2978 RMK A01 T01590047  RH  047%=      5-min Rain = 0
KCR1 240753Z 24013KT 16/05 A2978 RMK A01 T01570047  RH  048%=      5-min Rain = 0
KCR1 240754Z 24012KT 16/05 A2978 RMK A01 T01570047  RH  048%=      5-min Rain = 0
KCR1 240755Z 24013KT 16/05 A2978 RMK A01 T01550047  RH  048%=      5-min Rain = 0
KCR1 240756Z 24012KT 16/05 A2978 RMK A01 T01550048  RH  049%=      5-min Rain = 0
KCR1 240757Z 24014KT 16/05 A2978 RMK A01 T01550047  RH  049%=      5-min Rain = 0
KCR1 240758Z 24013KT 16/05 A2978 RMK A01 T01550047  RH  049%=      5-min Rain = 0
KCR1 240759Z 25011KT 15/05 A2978 RMK A01 T01540047  RH  049%=      5-min Rain = 0
KCR1 240800Z 25011KT 15/05 A2978 RMK A01 T01540047  RH  049%=      5-min Rain = 0
KCR1 240801Z 25011KT 15/05 A2978 RMK A01 T01540047  RH  049%=      5-min Rain = 0
KCR1 240802Z 26012KT 15/05 A2979 RMK A01 T01540047  RH  049%=      5-min Rain = 0
KCR1 240803Z 27010KT 15/05 A2979 RMK A01 T01530047  RH  049%=      5-min Rain = 0
KCR1 240804Z 26011KT 15/05 A2979 RMK A01 T01530047  RH  049%=      5-min Rain = 0
KCR1 240805Z 25013KT 15/05 A2979 RMK A01 T01520047  RH  049%=      5-min Rain = 0
KCR1 240806Z 24015KT 15/05 A2979 RMK A01 T01510047  RH  050%=      5-min Rain = 0
KCR1 240807Z 25014KT 15/05 A2979 RMK A01 T01520047  RH  050%=      5-min Rain = 0
KCR1 240808Z 24013KT 15/05 A2979 RMK A01 T01520047  RH  050%=      5-min Rain = 0
KCR1 240809Z 24015KT 15/05 A2979 RMK A01 T01510048  RH  050%=      5-min Rain = 0
KCR1 240810Z 25014KT 15/05 A2979 RMK A01 T01510047  RH  050%=      5-min Rain = 0
KCR1 240811Z 25013G20KT 15/05 A2979 RMK A01 T01510047  RH  050%=      5-min Rain = 0
KCR1 240812Z 26012KT 15/05 A298 RMK A01 T01510047  RH  050%=      5-min Rain = 0
KCR1 240813Z 25014KT 15/05 A2979 RMK A01 T01500047  RH  050%=      5-min Rain = 0
KCR1 240814Z 25013KT 15/05 A2979 RMK A01 T01500047  RH  050%=      5-min Rain = 0
KCR1 240815Z 25017KT 15/05 A2979 RMK A01 T01490048  RH  051%=      5-min Rain = 0
KCR1 240816Z 25014KT 15/05 A298 RMK A01 T01490048  RH  051%=      5-min Rain = 0
KCR1 240817Z 25015KT 15/05 A2979 RMK A01 T01490048  RH  051%=      5-min Rain = 0
KCR1 240818Z 24014G20KT 15/05 A2979 RMK A01 T01480048  RH  051%=      5-min Rain = 0
KCR1 240819Z 25013KT 15/05 A298 RMK A01 T01470048  RH  051%=      5-min Rain = 0
KCR1 240820Z 25013G18KT 15/05 A298 RMK A01 T01470048  RH  052%=      5-min Rain = 0
KCR1 240821Z 26010KT 15/05 A298 RMK A01 T01470048  RH  052%=      5-min Rain = 0
KCR1 240822Z 26012KT 15/05 A298 RMK A01 T01460048  RH  052%=      5-min Rain = 0
KCR1 240823Z 25011G16KT 15/05 A298 RMK A01 T01450047  RH  052%=      5-min Rain = 0
KCR1 240824Z 25013KT 15/05 A298 RMK A01 T01450047  RH  052%=      5-min Rain = 0
KCR1 240825Z 25013G18KT 15/05 A298 RMK A01 T01450047  RH  052%=      5-min Rain = 0
KCR1 240826Z 25013KT 15/05 A298 RMK A01 T01450047  RH  052%=      5-min Rain = 0
KCR1 240827Z 25013KT 15/05 A298 RMK A01 T01450047  RH  052%=      5-min Rain = 0
KCR1 240828Z 25013KT 15/05 A298 RMK A01 T01450047  RH  052%=      5-min Rain = 0
KCR1 240829Z 24014KT 14/05 A298 RMK A01 T01440046  RH  052%=      5-min Rain = 0
KCR1 240830Z 25012KT 14/05 A298 RMK A01 T01430046  RH  052%=      5-min Rain = 0
KCR1 240831Z 27010KT 14/05 A298 RMK A01 T01420046  RH  052%=      5-min Rain = 0
KCR1 240832Z 26010KT 14/05 A298 RMK A01 T01410046  RH  053%=      5-min Rain = 0
KCR1 240833Z 26007KT 14/05 A298 RMK A01 T01410045  RH  053%=      5-min Rain = 0
KCR1 240834Z 26008KT 14/05 A298 RMK A01 T01390045  RH  053%=      5-min Rain = 0
KCR1 240835Z 26011KT 14/05 A298 RMK A01 T01380045  RH  053%=      5-min Rain = 0
KCR1 240836Z 27010KT 14/04 A298 RMK A01 T01390044  RH  053%=      5-min Rain = 0
KCR1 240837Z 26009KT 14/04 A298 RMK A01 T01400044  RH  052%=      5-min Rain = 0
KCR1 240838Z 27010KT 14/04 A2981 RMK A01 T01400043  RH  052%=      5-min Rain = 0
KCR1 240839Z 27009KT 14/04 A2981 RMK A01 T01390042  RH  052%=      5-min Rain = 0
KCR1 240840Z 27010KT 14/04 A2981 RMK A01 T01390041  RH  051%=      5-min Rain = 0
KCR1 240841Z 26011KT 14/04 A2981 RMK A01 T01380038  RH  051%=      5-min Rain = 0
KCR1 240842Z 26011KT 14/04 A2981 RMK A01 T01390035  RH  049%=      5-min Rain = 0
KCR1 240843Z 27009KT 14/03 A2981 RMK A01 T01410034  RH  049%=      5-min Rain = 0
KCR1 240844Z 26009KT 14/03 A2981 RMK A01 T01420034  RH  048%=      5-min Rain = 0
KCR1 240845Z 27010KT 14/03 A2981 RMK A01 T01420033  RH  048%=      5-min Rain = 0
KCR1 240846Z 27011G16KT 14/03 A2981 RMK A01 T01420028  RH  046%=      5-min Rain = 0
KCR1 240847Z 27010KT 14/03 A2981 RMK A01 T01440026  RH  045%=      5-min Rain = 0
KCR1 240848Z 26011KT 14/02 A2982 RMK A01 T01440023  RH  044%=      5-min Rain = 0
KCR1 240849Z 27012KT 14/02 A2982 RMK A01 T01440019  RH  043%=      5-min Rain = 0
KCR1 240850Z 28011KT 15/01 A2982 RMK A01 T01460014  RH  041%=      5-min Rain = 0
KCR1 240851Z 28010KT 15/01 A2982 RMK A01 T01460012  RH  040%=      5-min Rain = 0
KCR1 240852Z 27010KT 15/01 A2982 RMK A01 T01470009  RH  039%=      5-min Rain = 0
KCR1 240853Z 27010KT 15/01 A2982 RMK A01 T01480007  RH  038%=      5-min Rain = 0
KCR1 240854Z 28011KT 15/00 A2982 RMK A01 T01470003  RH  037%=      5-min Rain = 0
KCR1 240855Z 28015KT 15/M00 A2982 RMK A01 T01481002  RH  036%=      5-min Rain = 0
KCR1 240856Z 28012KT 15/M01 A2982 RMK A01 T01501007  RH  034%=      5-min Rain = 0
KCR1 240857Z 29014KT 15/M01 A2982 RMK A01 T01511008  RH  034%=      5-min Rain = 0
KCR1 240858Z 28014KT 15/M01 A2982 RMK A01 T01511012  RH  033%=      5-min Rain = 0
KCR1 240859Z 28013KT 15/M01 A2982 RMK A01 T01511013  RH  032%=      5-min Rain = 0
KCR1 240900Z 29013KT 15/M02 A2982 RMK A01 T01501016  RH  032%=      5-min Rain = 0
KCR1 240901Z 29014KT 15/M02 A2982 RMK A01 T01501018  RH  031%=      5-min Rain = 0
KCR1 240902Z 30014KT 15/M02 A2983 RMK A01 T01501020  RH  031%=      5-min Rain = 0
KCR1 240903Z 29012KT 15/M02 A2983 RMK A01 T01491023  RH  030%=      5-min Rain = 0
KCR1 240904Z 29013KT 15/M02 A2983 RMK A01 T01481023  RH  031%=      5-min Rain = 0
KCR1 240905Z 30016G21KT 15/M03 A2983 RMK A01 T01481025  RH  030%=      5-min Rain = 0
KCR1 240906Z 30014KT 15/M03 A2983 RMK A01 T01481027  RH  030%=      5-min Rain = 0
KCR1 240907Z 30013KT 15/M03 A2983 RMK A01 T01491027  RH  030%=      5-min Rain = 0
KCR1 240908Z 31013KT 15/M03 A2983 RMK A01 T01481027  RH  030%=      5-min Rain = 0
KCR1 240909Z 30013KT 15/M03 A2983 RMK A01 T01471027  RH  030%=      5-min Rain = 0
KCR1 240910Z 31015KT 15/M03 A2983 RMK A01 T01471026  RH  030%=      5-min Rain = 0
KCR1 240911Z 31016G23KT 15/M03 A2983 RMK A01 T01461026  RH  030%=      5-min Rain = 0
KCR1 240912Z 32014KT 15/M03 A2983 RMK A01 T01461026  RH  030%=      5-min Rain = 0
KCR1 240913Z 31015KT 15/M03 A2983 RMK A01 T01451025  RH  031%=      5-min Rain = 0
KCR1 240914Z 32015KT 15/M02 A2983 RMK A01 T01451024  RH  031%=      5-min Rain = 0
KCR1 240915Z 32016KT 14/M02 A2984 RMK A01 T01441024  RH  031%=      5-min Rain = 0
KCR1 240916Z 32013KT 14/M02 A2984 RMK A01 T01421022  RH  032%=      5-min Rain = 0
KCR1 240917Z 32016KT 14/M02 A2984 RMK A01 T01401022  RH  032%=      5-min Rain = 0
KCR1 240918Z 32014KT 14/M02 A2984 RMK A01 T01401022  RH  033%=      5-min Rain = 0
KCR1 240919Z 33016G21KT 14/M02 A2984 RMK A01 T01391020  RH  033%=      5-min Rain = 0
KCR1 240920Z 33016KT 14/M02 A2984 RMK A01 T01391018  RH  034%=      5-min Rain = 0
KCR1 240921Z 33016G21KT 14/M02 A2984 RMK A01 T01381016  RH  035%=      5-min Rain = 0
KCR1 240922Z 32017KT 14/M02 A2984 RMK A01 T01371015  RH  035%=      5-min Rain = 0
KCR1 240923Z 33017KT 14/M01 A2984 RMK A01 T01371013  RH  035%=      5-min Rain = 0
KCR1 240924Z 33016G22KT 14/M01 A2984 RMK A01 T01371012  RH  036%=      5-min Rain = 0
KCR1 240925Z 33018G23KT 14/M01 A2985 RMK A01 T01371011  RH  036%=      5-min Rain = 0
KCR1 240926Z 33019KT 14/M01 A2985 RMK A01 T01361010  RH  037%=      5-min Rain = 0
KCR1 240927Z 33019G24KT 14/M01 A2985 RMK A01 T01361009  RH  037%=      5-min Rain = 0
KCR1 240928Z 33018KT 14/M01 A2985 RMK A01 T01361007  RH  037%=      5-min Rain = 0
KCR1 240929Z 33020KT 14/M01 A2985 RMK A01 T01351007  RH  038%=      5-min Rain = 0
KCR1 240930Z 33019KT 14/M01 A2985 RMK A01 T01351007  RH  038%=      5-min Rain = 0
KCR1 240931Z 33020KT 13/M01 A2985 RMK A01 T01341006  RH  038%=      5-min Rain = 0
KCR1 240932Z 33020KT 13/M01 A2985 RMK A01 T01331005  RH  038%=      5-min Rain = 0
KCR1 240933Z 33019KT 13/M01 A2985 RMK A01 T01321005  RH  039%=      5-min Rain = 0
KCR1 240934Z 34019KT 13/M01 A2986 RMK A01 T01321005  RH  039%=      5-min Rain = 0
KCR1 240935Z 33019KT 13/M01 A2986 RMK A01 T01321005  RH  039%=      5-min Rain = 0
KCR1 240936Z 34017G22KT 13/M01 A2986 RMK A01 T01311005  RH  039%=      5-min Rain = 0
KCR1 240937Z 34017KT 13/M01 A2986 RMK A01 T01301005  RH  039%=      5-min Rain = 0
KCR1 240938Z 33016KT 13/M01 A2987 RMK A01 T01291005  RH  039%=      5-min Rain = 0
KCR1 240939Z 33018KT 13/M01 A2987 RMK A01 T01291005  RH  040%=      5-min Rain = 0
KCR1 240940Z 33016G21KT 13/M01 A2987 RMK A01 T01291006  RH  039%=      5-min Rain = 0
KCR1 240941Z 33016KT 13/M01 A2987 RMK A01 T01291006  RH  039%=      5-min Rain = 0
KCR1 240942Z 34018G24KT 13/M01 A2987 RMK A01 T01291006  RH  039%=      5-min Rain = 0
KCR1 240943Z 33016KT 13/M01 A2987 RMK A01 T01281006  RH  039%=      5-min Rain = 0
KCR1 240944Z 34018KT 13/M01 A2987 RMK A01 T01281007  RH  039%=      5-min Rain = 0
KCR1 240945Z 34016KT 13/M01 A2987 RMK A01 T01281008  RH  039%=      5-min Rain = 0
KCR1 240946Z 34020KT 13/M01 A2988 RMK A01 T01271008  RH  039%=      5-min Rain = 0
KCR1 240947Z 34018KT 13/M01 A2988 RMK A01 T01271009  RH  039%=      5-min Rain = 0
KCR1 240948Z 34020KT 13/M01 A2988 RMK A01 T01271009  RH  039%=      5-min Rain = 0
KCR1 240949Z 34019G24KT 13/M01 A2988 RMK A01 T01271009  RH  039%=      5-min Rain = 0
KCR1 240950Z 34017KT 13/M01 A2988 RMK A01 T01271009  RH  039%=      5-min Rain = 0
KCR1 240951Z 34016KT 13/M01 A2988 RMK A01 T01251008  RH  040%=      5-min Rain = 0
KCR1 240952Z 34018KT 12/M01 A2988 RMK A01 T01241008  RH  040%=      5-min Rain = 0
KCR1 240953Z 34017KT 12/M01 A2988 RMK A01 T01231008  RH  040%=      5-min Rain = 0
KCR1 240954Z 34016KT 12/M01 A2988 RMK A01 T01231008  RH  040%=      5-min Rain = 0
KCR1 240955Z 34019KT 12/M01 A2988 RMK A01 T01231009  RH  040%=      5-min Rain = 0
KCR1 240956Z 34017KT 12/M01 A2988 RMK A01 T01221009  RH  040%=      5-min Rain = 0
KCR1 240957Z 34015KT 12/M01 A2988 RMK A01 T01221009  RH  040%=      5-min Rain = 0
KCR1 240958Z 34017KT 12/M01 A2988 RMK A01 T01211008  RH  041%=      5-min Rain = 0
KCR1 240959Z 34015KT 12/M01 A2988 RMK A01 T01201009  RH  041%=      5-min Rain = 0
KCR1 241000Z 34016KT 12/M01 A2988 RMK A01 T01201008  RH  041%=      5-min Rain = 0
KCR1 241001Z 34017KT 12/M01 A2988 RMK A01 T01191009  RH  041%=      5-min Rain = 0
KCR1 241002Z 33016KT 12/M01 A2988 RMK A01 T01191009  RH  041%=      5-min Rain = 0
KCR1 241003Z 33016KT 12/M01 A2988 RMK A01 T01191010  RH  041%=      5-min Rain = 0
KCR1 241004Z 33016KT 12/M01 A2988 RMK A01 T01191009  RH  041%=      5-min Rain = 0
KCR1 241005Z 33016KT 12/M01 A2989 RMK A01 T01181009  RH  041%=      5-min Rain = 0
KCR1 241006Z 33014KT 12/M01 A2989 RMK A01 T01181010  RH  041%=      5-min Rain = 0
KCR1 241007Z 33014KT 12/M01 A2989 RMK A01 T01181009  RH  041%=      5-min Rain = 0
KCR1 241008Z 33013KT 12/M01 A2989 RMK A01 T01181009  RH  041%=      5-min Rain = 0
KCR1 241009Z 33014KT 12/M01 A2989 RMK A01 T01171009  RH  042%=      5-min Rain = 0
KCR1 241010Z 33016KT 12/M01 A2989 RMK A01 T01171009  RH  042%=      5-min Rain = 0
KCR1 241011Z 33015KT 12/M01 A2989 RMK A01 T01171010  RH  041%=      5-min Rain = 0
KCR1 241012Z 33014KT 12/M01 A2989 RMK A01 T01181010  RH  041%=      5-min Rain = 0
KCR1 241013Z 33015KT 12/M01 A2989 RMK A01 T01171009  RH  042%=      5-min Rain = 0
KCR1 241014Z 33013KT 12/M01 A299 RMK A01 T01161009  RH  042%=      5-min Rain = 0
KCR1 241015Z 33016KT 12/M01 A2989 RMK A01 T01151010  RH  042%=      5-min Rain = 0
KCR1 241016Z 33014KT 12/M01 A299 RMK A01 T01151010  RH  042%=      5-min Rain = 0
KCR1 241017Z 33015KT 12/M01 A299 RMK A01 T01151010  RH  042%=      5-min Rain = 0
KCR1 241018Z 33017G22KT 11/M01 A299 RMK A01 T01141010  RH  042%=      5-min Rain = 0
KCR1 241019Z 33015KT 12/M01 A299 RMK A01 T01151011  RH  042%=      5-min Rain = 0
KCR1 241020Z 33015KT 12/M01 A299 RMK A01 T01151011  RH  042%=      5-min Rain = 0
KCR1 241021Z 33015KT 11/M01 A299 RMK A01 T01141011  RH  042%=      5-min Rain = 0
KCR1 241022Z 33016KT 11/M01 A299 RMK A01 T01141011  RH  042%=      5-min Rain = 0
KCR1 241023Z 33017KT 11/M01 A299 RMK A01 T01131011  RH  042%=      5-min Rain = 0
KCR1 241024Z 33016KT 11/M01 A299 RMK A01 T01131012  RH  042%=      5-min Rain = 0
KCR1 241025Z 33016KT 11/M01 A299 RMK A01 T01131011  RH  042%=      5-min Rain = 0
KCR1 241026Z 33016KT 11/M01 A299 RMK A01 T01131011  RH  042%=      5-min Rain = 0
KCR1 241027Z 33016KT 11/M01 A299 RMK A01 T01121012  RH  042%=      5-min Rain = 0
KCR1 241028Z 33015KT 11/M01 A299 RMK A01 T01121012  RH  042%=      5-min Rain = 0
KCR1 241029Z 33014KT 11/M01 A299 RMK A01 T01121012  RH  042%=      5-min Rain = 0
KCR1 241030Z 33015KT 11/M01 A299 RMK A01 T01121012  RH  042%=      5-min Rain = 0
KCR1 241031Z 33015KT 11/M01 A299 RMK A01 T01111012  RH  042%=      5-min Rain = 0
KCR1 241032Z 33014KT 11/M01 A299 RMK A01 T01101011  RH  043%=      5-min Rain = 0
KCR1 241033Z 33016KT 11/M01 A299 RMK A01 T01091012  RH  043%=      5-min Rain = 0
KCR1 241034Z 34016KT 11/M01 A299 RMK A01 T01091012  RH  043%=      5-min Rain = 0
KCR1 241035Z 33016KT 11/M01 A299 RMK A01 T01091013  RH  043%=      5-min Rain = 0
KCR1 241036Z 33016KT 11/M01 A2991 RMK A01 T01101012  RH  043%=      5-min Rain = 0
KCR1 241037Z 33016KT 11/M01 A2991 RMK A01 T01091012  RH  043%=      5-min Rain = 0
KCR1 241038Z 33015KT 11/M01 A2991 RMK A01 T01091012  RH  043%=      5-min Rain = 0
KCR1 241039Z 33015G20KT 11/M01 A2991 RMK A01 T01081012  RH  043%=      5-min Rain = 0
KCR1 241040Z 33016KT 11/M01 A2991 RMK A01 T01081012  RH  043%=      5-min Rain = 0
KCR1 241041Z 33018G23KT 11/M01 A299 RMK A01 T01071013  RH  043%=      5-min Rain = 0
KCR1 241042Z 33016KT 11/M01 A2991 RMK A01 T01071013  RH  043%=      5-min Rain = 0
KCR1 241043Z 33017KT 11/M01 A2991 RMK A01 T01071013  RH  043%=      5-min Rain = 0
KCR1 241044Z 34018G23KT 11/M01 A2991 RMK A01 T01071014  RH  043%=      5-min Rain = 0
KCR1 241045Z 33016KT 11/M01 A2991 RMK A01 T01071013  RH  043%=      5-min Rain = 0
KCR1 241046Z 33018KT 11/M01 A2991 RMK A01 T01061013  RH  043%=      5-min Rain = 0
KCR1 241047Z 34018KT 11/M01 A2991 RMK A01 T01061014  RH  043%=      5-min Rain = 0
KCR1 241048Z 34017KT 11/M01 A2991 RMK A01 T01071013  RH  043%=      5-min Rain = 0
KCR1 241049Z 34017KT 11/M01 A2991 RMK A01 T01061013  RH  043%=      5-min Rain = 0
KCR1 241050Z 34018KT 11/M01 A2991 RMK A01 T01061013  RH  044%=      5-min Rain = 0
KCR1 241051Z 33019KT 11/M01 A2991 RMK A01 T01061014  RH  043%=      5-min Rain = 0
KCR1 241052Z 34020KT 11/M01 A2991 RMK A01 T01061014  RH  043%=      5-min Rain = 0
KCR1 241053Z 34019G24KT 11/M01 A2991 RMK A01 T01061014  RH  043%=      5-min Rain = 0
KCR1 241054Z 34021G27KT 11/M01 A2991 RMK A01 T01071014  RH  043%=      5-min Rain = 0
KCR1 241055Z 34020KT 11/M01 A2991 RMK A01 T01061014  RH  043%=      5-min Rain = 0
KCR1 241056Z 34021KT 11/M01 A2991 RMK A01 T01061014  RH  043%=      5-min Rain = 0
KCR1 241057Z 34021KT 11/M02 A2991 RMK A01 T01061015  RH  043%=      5-min Rain = 0
KCR1 241058Z 34020KT 11/M01 A2991 RMK A01 T01061014  RH  043%=      5-min Rain = 0
KCR1 241059Z 34020KT 11/M01 A2991 RMK A01 T01051014  RH  043%=      5-min Rain = 0
KCR1 241100Z 34023KT 11/M01 A2991 RMK A01 T01051014  RH  043%=      5-min Rain = 0
KCR1 241101Z 34023KT 11/M02 A2991 RMK A01 T01061015  RH  043%=      5-min Rain = 0
KCR1 241102Z 34022KT 11/M02 A2991 RMK A01 T01061015  RH  043%=      5-min Rain = 0
KCR1 241103Z 34021KT 11/M01 A2991 RMK A01 T01061014  RH  043%=      5-min Rain = 0
KCR1 241104Z 34020G26KT 11/M01 A2991 RMK A01 T01061014  RH  043%=      5-min Rain = 0
KCR1 241105Z 34024KT 11/M01 A2991 RMK A01 T01061014  RH  043%=      5-min Rain = 0
KCR1 241106Z 34020G26KT 11/M01 A2991 RMK A01 T01051014  RH  043%=      5-min Rain = 0
KCR1 241107Z 34021KT 11/M01 A2991 RMK A01 T01051014  RH  044%=      5-min Rain = 0
KCR1 241108Z 34020KT 10/M01 A2991 RMK A01 T01041014  RH  044%=      5-min Rain = 0
KCR1 241109Z 34020KT 10/M01 A2991 RMK A01 T01031014  RH  044%=      5-min Rain = 0
KCR1 241110Z 34022KT 10/M01 A2991 RMK A01 T01031014  RH  044%=      5-min Rain = 0
KCR1 241111Z 34021KT 10/M01 A2991 RMK A01 T01031014  RH  044%=      5-min Rain = 0
KCR1 241112Z 34021KT 10/M01 A2991 RMK A01 T01031014  RH  044%=      5-min Rain = 0
KCR1 241113Z 34020KT 10/M01 A2991 RMK A01 T01021014  RH  044%=      5-min Rain = 0
KCR1 241114Z 34020KT 10/M01 A2991 RMK A01 T01021013  RH  044%=      5-min Rain = 0
KCR1 241115Z 34021KT 10/M01 A2991 RMK A01 T01021013  RH  045%=      5-min Rain = 0
KCR1 241116Z 34020KT 10/M01 A2991 RMK A01 T01011014  RH  045%=      5-min Rain = 0
KCR1 241117Z 34019KT 10/M01 A2991 RMK A01 T01011014  RH  045%=      5-min Rain = 0
KCR1 241118Z 34019KT 10/M01 A2991 RMK A01 T01011013  RH  045%=      5-min Rain = 0
KCR1 241119Z 34021G26KT 10/M01 A2991 RMK A01 T01011013  RH  045%=      5-min Rain = 0
KCR1 241120Z 34021KT 10/M01 A2991 RMK A01 T01011014  RH  045%=      5-min Rain = 0
KCR1 241121Z 34022KT 10/M01 A2991 RMK A01 T01021014  RH  044%=      5-min Rain = 0
KCR1 241122Z 34021KT 10/M01 A2991 RMK A01 T01021014  RH  044%=      5-min Rain = 0
KCR1 241123Z 34019KT 10/M01 A2992 RMK A01 T01031014  RH  044%=      5-min Rain = 0
KCR1 241124Z 34022KT 10/M01 A2992 RMK A01 T01021014  RH  044%=      5-min Rain = 0
KCR1 241125Z 34021KT 10/M01 A2992 RMK A01 T01021013  RH  044%=      5-min Rain = 0
KCR1 241126Z 34018KT 10/M01 A2992 RMK A01 T01021013  RH  045%=      5-min Rain = 0
KCR1 241127Z 34020KT 10/M01 A2992 RMK A01 T01011013  RH  045%=      5-min Rain = 0
KCR1 241128Z 34021KT 10/M01 A2992 RMK A01 T01011013  RH  045%=      5-min Rain = 0
KCR1 241129Z 34020KT 10/M01 A2992 RMK A01 T01011013  RH  045%=      5-min Rain = 0
KCR1 241130Z 34020KT 10/M01 A2992 RMK A01 T01001013  RH  045%=      5-min Rain = 0
KCR1 241131Z 34019KT 10/M01 A2992 RMK A01 T01001013  RH  045%=      5-min Rain = 0
KCR1 241132Z 34021G27KT 10/M01 A2992 RMK A01 T00991014  RH  045%=      5-min Rain = 0
KCR1 241133Z 34019G24KT 10/M01 A2992 RMK A01 T01001013  RH  045%=      5-min Rain = 0
KCR1 241134Z 34019G24KT 10/M01 A2993 RMK A01 T01001013  RH  045%=      5-min Rain = 0
KCR1 241135Z 34019KT 10/M01 A2993 RMK A01 T01001013  RH  045%=      5-min Rain = 0
KCR1 241136Z 34017G22KT 10/M01 A2993 RMK A01 T00991013  RH  046%=      5-min Rain = 0
KCR1 241137Z 34018KT 10/M01 A2993 RMK A01 T00991013  RH  046%=      5-min Rain = 0
KCR1 241138Z 34018KT 10/M01 A2993 RMK A01 T00991013  RH  046%=      5-min Rain = 0
KCR1 241139Z 34020KT 10/M01 A2993 RMK A01 T00991013  RH  046%=      5-min Rain = 0
KCR1 241140Z 35020KT 10/M01 A2993 RMK A01 T00991013  RH  046%=      5-min Rain = 0
KCR1 241141Z 35021G28KT 10/M01 A2993 RMK A01 T00991013  RH  046%=      5-min Rain = 0
KCR1 241142Z 35020KT 10/M01 A2993 RMK A01 T01001013  RH  045%=      5-min Rain = 0
KCR1 241143Z 34022KT 10/M01 A2994 RMK A01 T01001012  RH  045%=      5-min Rain = 0
KCR1 241144Z 35020G26KT 10/M01 A2994 RMK A01 T01001013  RH  045%=      5-min Rain = 0
KCR1 241145Z 34017G23KT 10/M01 A2994 RMK A01 T01011012  RH  045%=      5-min Rain = 0
KCR1 241146Z 34019KT 10/M01 A2994 RMK A01 T01001012  RH  046%=      5-min Rain = 0
KCR1 241147Z 34017KT 10/M01 A2995 RMK A01 T01001012  RH  046%=      5-min Rain = 0
KCR1 241148Z 34017KT 10/M01 A2995 RMK A01 T00991012  RH  046%=      5-min Rain = 0
KCR1 241149Z 34016KT 10/M01 A2995 RMK A01 T00981012  RH  046%=      5-min Rain = 0
KCR1 241150Z 33016KT 10/M01 A2995 RMK A01 T00981012  RH  046%=      5-min Rain = 0
KCR1 241151Z 34016KT 10/M01 A2995 RMK A01 T00981012  RH  046%=      5-min Rain = 0
KCR1 241152Z 34016KT 10/M01 A2996 RMK A01 T00981012  RH  046%=      5-min Rain = 0
KCR1 241153Z 34015G21KT 10/M01 A2996 RMK A01 T00971012  RH  047%=      5-min Rain = 0
KCR1 241154Z 34015KT 10/M01 A2996 RMK A01 T00971012  RH  047%=      5-min Rain = 0
KCR1 241155Z 33016KT 10/M01 A2996 RMK A01 T00961012  RH  047%=      5-min Rain = 0
KCR1 241156Z 33015KT 10/M01 A2996 RMK A01 T00961012  RH  047%=      5-min Rain = 0
KCR1 241157Z 33015KT 10/M01 A2996 RMK A01 T00961012  RH  047%=      5-min Rain = 0
KCR1 241158Z 33015KT 10/M01 A2996 RMK A01 T00961012  RH  047%=      5-min Rain = 0
KCR1 241159Z 34015KT 10/M01 A2997 RMK A01 T00961012  RH  047%=      5-min Rain = 0
KCR1 241200Z 34014KT 10/M01 A2997 RMK A01 T00951012  RH  047%=      5-min Rain = 0
KCR1 241201Z 34015G22KT 10/M01 A2997 RMK A01 T00951012  RH  047%=      5-min Rain = 0
KCR1 241202Z 34014KT 10/M01 A2997 RMK A01 T00951012  RH  047%=      5-min Rain = 0
KCR1 241203Z 34015KT 09/M01 A2997 RMK A01 T00941012  RH  048%=      5-min Rain = 0
KCR1 241204Z 34017G22KT 09/M01 A2997 RMK A01 T00941012  RH  048%=      5-min Rain = 0
KCR1 241205Z 34017KT 09/M01 A2997 RMK A01 T00941012  RH  047%=      5-min Rain = 0
KCR1 241206Z 34017KT 09/M01 A2997 RMK A01 T00941012  RH  047%=      5-min Rain = 0
KCR1 241207Z 33015KT 09/M01 A2997 RMK A01 T00931012  RH  048%=      5-min Rain = 0
KCR1 241208Z 33017G22KT 09/M01 A2997 RMK A01 T00931012  RH  048%=      5-min Rain = 0
KCR1 241209Z 33017KT 09/M01 A2997 RMK A01 T00931012  RH  048%=      5-min Rain = 0
KCR1 241210Z 33017KT 09/M01 A2997 RMK A01 T00931012  RH  048%=      5-min Rain = 0
KCR1 241211Z 33016KT 09/M01 A2997 RMK A01 T00931012  RH  048%=      5-min Rain = 0
KCR1 241212Z 34018KT 09/M01 A2997 RMK A01 T00921012  RH  048%=      5-min Rain = 0
KCR1 241213Z 34017KT 09/M01 A2997 RMK A01 T00931012  RH  048%=      5-min Rain = 0
KCR1 241214Z 34016KT 09/M01 A2997 RMK A01 T00921011  RH  048%=      5-min Rain = 0
KCR1 241215Z 35017KT 09/M01 A2997 RMK A01 T00911011  RH  049%=      5-min Rain = 0
KCR1 241216Z 35019KT 09/M01 A2997 RMK A01 T00901011  RH  049%=      5-min Rain = 0
KCR1 241217Z 35020KT 09/M01 A2997 RMK A01 T00901011  RH  049%=      5-min Rain = 0
KCR1 241218Z 35019G25KT 09/M01 A2997 RMK A01 T00901011  RH  049%=      5-min Rain = 0
KCR1 241219Z 35020KT 09/M01 A2997 RMK A01 T00901011  RH  049%=      5-min Rain = 0
KCR1 241220Z 35019KT 09/M01 A2997 RMK A01 T00901011  RH  049%=      5-min Rain = 0
KCR1 241221Z 35021KT 09/M01 A2997 RMK A01 T00901011  RH  049%=      5-min Rain = 0
KCR1 241222Z 34019KT 09/M01 A2998 RMK A01 T00911010  RH  049%=      5-min Rain = 0
KCR1 241223Z 34019KT 09/M01 A2998 RMK A01 T00901010  RH  049%=      5-min Rain = 0
KCR1 241224Z 34017KT 09/M01 A2998 RMK A01 T00891010  RH  050%=      5-min Rain = 0
KCR1 241225Z 34017KT 09/M01 A2998 RMK A01 T00891010  RH  050%=      5-min Rain = 0
KCR1 241226Z 34017KT 09/M01 A2998 RMK A01 T00881010  RH  050%=      5-min Rain = 0
KCR1 241227Z 34019KT 09/M01 A2998 RMK A01 T00881010  RH  050%=      5-min Rain = 0
KCR1 241228Z 34019KT 09/M01 A2998 RMK A01 T00881010  RH  050%=      5-min Rain = 0
KCR1 241229Z 34017KT 09/M01 A2999 RMK A01 T00881010  RH  050%=      5-min Rain = 0
KCR1 241230Z 34019KT 09/M01 A2999 RMK A01 T00891009  RH  050%=      5-min Rain = 0
KCR1 241231Z 34017KT 09/M01 A2999 RMK A01 T00891009  RH  050%=      5-min Rain = 0
KCR1 241232Z 34018KT 09/M01 A2999 RMK A01 T00891009  RH  050%=      5-min Rain = 0
KCR1 241233Z 35019G24KT 09/M01 A2999 RMK A01 T00881009  RH  050%=      5-min Rain = 0
KCR1 241234Z 34019KT 09/M01 A2999 RMK A01 T00891009  RH  050%=      5-min Rain = 0
KCR1 241235Z 34019KT 09/M01 A2999 RMK A01 T00881009  RH  050%=      5-min Rain = 0
KCR1 241236Z 34017G22KT 09/M01 A2999 RMK A01 T00891008  RH  051%=      5-min Rain = 0
KCR1 241237Z 34019KT 09/M01 A2999 RMK A01 T00881009  RH  051%=      5-min Rain = 0
KCR1 241238Z 34018KT 09/M01 A2999 RMK A01 T00881009  RH  051%=      5-min Rain = 0
KCR1 241239Z 34019KT 09/M01 A2999 RMK A01 T00881009  RH  051%=      5-min Rain = 0
KCR1 241240Z 34017KT 09/M01 A30 RMK A01 T00881009  RH  051%=      5-min Rain = 0
KCR1 241241Z 34018KT 09/M01 A30 RMK A01 T00871008  RH  051%=      5-min Rain = 0
KCR1 241242Z 34016KT 09/M01 A30 RMK A01 T00871008  RH  051%=      5-min Rain = 0
KCR1 241243Z 34017KT 09/M01 A30 RMK A01 T00861008  RH  051%=      5-min Rain = 0
KCR1 241244Z 34017KT 09/M01 A30 RMK A01 T00861008  RH  052%=      5-min Rain = 0
KCR1 241245Z 33017G22KT 09/M01 A30 RMK A01 T00851008  RH  052%=      5-min Rain = 0
KCR1 241246Z 34019KT 09/M01 A30 RMK A01 T00851008  RH  052%=      5-min Rain = 0
KCR1 241247Z 34014KT 09/M01 A30 RMK A01 T00851008  RH  052%=      5-min Rain = 0
KCR1 241248Z 34018KT 09/M01 A30 RMK A01 T00851007  RH  052%=      5-min Rain = 0
KCR1 241249Z 34019KT 09/M01 A30 RMK A01 T00851008  RH  052%=      5-min Rain = 0
KCR1 241250Z 34017G22KT 09/M01 A30 RMK A01 T00851008  RH  052%=      5-min Rain = 0
KCR1 241251Z 34018KT 09/M01 A30 RMK A01 T00851007  RH  052%=      5-min Rain = 0
KCR1 241252Z 34018KT 09/M01 A30 RMK A01 T00851007  RH  052%=      5-min Rain = 0
KCR1 241253Z 34017G22KT 09/M01 A30 RMK A01 T00851007  RH  052%=      5-min Rain = 0
KCR1 241254Z 34020G25KT 09/M01 A30 RMK A01 T00851007  RH  052%=      5-min Rain = 0
KCR1 241255Z 35016KT 09/M01 A30 RMK A01 T00861007  RH  052%=      5-min Rain = 0
KCR1 241256Z 35018KT 09/M01 A3001 RMK A01 T00851007  RH  052%=      5-min Rain = 0
KCR1 241257Z 34015KT 09/M01 A3001 RMK A01 T00851007  RH  052%=      5-min Rain = 0
KCR1 241258Z 34016KT 09/M01 A3001 RMK A01 T00851006  RH  053%=      5-min Rain = 0
KCR1 241259Z 34016KT 08/M01 A3001 RMK A01 T00841006  RH  053%=      5-min Rain = 0
KCR1 241300Z 34017KT 08/M01 A3001 RMK A01 T00831006  RH  053%=      5-min Rain = 0
KCR1 241301Z 34019G25KT 08/M01 A3001 RMK A01 T00831006  RH  053%=      5-min Rain = 0
KCR1 241302Z 34018KT 08/M01 A3001 RMK A01 T00831007  RH  053%=      5-min Rain = 0
KCR1 241303Z 34016KT 08/M01 A3001 RMK A01 T00841006  RH  053%=      5-min Rain = 0
KCR1 241304Z 34016KT 08/M01 A3001 RMK A01 T00831006  RH  053%=      5-min Rain = 0
KCR1 241305Z 34016KT 08/M01 A3001 RMK A01 T00831006  RH  054%=      5-min Rain = 0
KCR1 241306Z 34017KT 08/M01 A3001 RMK A01 T00821006  RH  054%=      5-min Rain = 0
KCR1 241307Z 34017KT 08/M01 A3001 RMK A01 T00821006  RH  054%=      5-min Rain = 0
KCR1 241308Z 34017G22KT 08/M01 A3001 RMK A01 T00821005  RH  054%=      5-min Rain = 0
KCR1 241309Z 34020KT 08/M01 A3001 RMK A01 T00821006  RH  054%=      5-min Rain = 0
KCR1 241310Z 34019KT 08/M01 A3001 RMK A01 T00831006  RH  054%=      5-min Rain = 0
KCR1 241311Z 34019KT 08/M01 A3001 RMK A01 T00831006  RH  054%=      5-min Rain = 0
KCR1 241312Z 34017KT 08/M01 A3002 RMK A01 T00831006  RH  054%=      5-min Rain = 0
KCR1 241313Z 34017KT 08/M01 A3002 RMK A01 T00821005  RH  054%=      5-min Rain = 0
KCR1 241314Z 34018KT 08/M01 A3002 RMK A01 T00821006  RH  054%=      5-min Rain = 0
KCR1 241315Z 34017KT 08/M01 A3002 RMK A01 T00821005  RH  054%=      5-min Rain = 0
KCR1 241316Z 33016KT 08/M01 A3002 RMK A01 T00821005  RH  054%=      5-min Rain = 0
KCR1 241317Z 34016KT 08/M01 A3002 RMK A01 T00821005  RH  054%=      5-min Rain = 0
KCR1 241318Z 34015KT 08/M01 A3002 RMK A01 T00811005  RH  055%=      5-min Rain = 0
KCR1 241319Z 34015KT 08/M01 A3002 RMK A01 T00801005  RH  055%=      5-min Rain = 0
KCR1 241320Z 34017KT 08/M01 A3002 RMK A01 T00801005  RH  055%=      5-min Rain = 0
KCR1 241321Z 34017KT 08/M01 A3002 RMK A01 T00801005  RH  055%=      5-min Rain = 0
KCR1 241322Z 34018KT 08/M01 A3003 RMK A01 T00811005  RH  055%=      5-min Rain = 0
KCR1 241323Z 35020KT 08/M01 A3003 RMK A01 T00811005  RH  055%=      5-min Rain = 0
KCR1 241324Z 35015G20KT 08/M01 A3003 RMK A01 T00821005  RH  054%=      5-min Rain = 0
KCR1 241325Z 34019KT 08/M00 A3003 RMK A01 T00821004  RH  055%=      5-min Rain = 0
KCR1 241326Z 34020KT 08/M00 A3003 RMK A01 T00821004  RH  055%=      5-min Rain = 0
KCR1 241327Z 34019KT 08/M00 A3003 RMK A01 T00821004  RH  054%=      5-min Rain = 0
KCR1 241328Z 34019KT 08/M00 A3003 RMK A01 T00821004  RH  055%=      5-min Rain = 0
KCR1 241329Z 34017KT 08/M00 A3003 RMK A01 T00821004  RH  055%=      5-min Rain = 0
KCR1 241330Z 34016KT 08/M00 A3004 RMK A01 T00811004  RH  055%=      5-min Rain = 0
KCR1 241331Z 34016KT 08/M00 A3004 RMK A01 T00811004  RH  055%=      5-min Rain = 0
KCR1 241332Z 34015KT 08/M00 A3004 RMK A01 T00811003  RH  055%=      5-min Rain = 0
KCR1 241333Z 34017KT 08/M00 A3004 RMK A01 T00811003  RH  055%=      5-min Rain = 0
KCR1 241334Z 34017KT 08/M00 A3004 RMK A01 T00801004  RH  055%=      5-min Rain = 0
KCR1 241335Z 35015KT 08/M00 A3004 RMK A01 T00811004  RH  055%=      5-min Rain = 0
KCR1 241336Z 34019KT 08/M00 A3004 RMK A01 T00811003  RH  055%=      5-min Rain = 0
KCR1 241337Z 34019KT 08/M00 A3004 RMK A01 T00811004  RH  055%=      5-min Rain = 0
KCR1 241338Z 34018KT 08/M00 A3004 RMK A01 T00811004  RH  055%=      5-min Rain = 0
KCR1 241339Z 34018KT 08/M00 A3005 RMK A01 T00821004  RH  055%=      5-min Rain = 0
KCR1 241340Z 34017G24KT 08/M00 A3005 RMK A01 T00821004  RH  055%=      5-min Rain = 0
KCR1 241341Z 34018KT 08/M00 A3005 RMK A01 T00821004  RH  055%=      5-min Rain = 0
KCR1 241342Z 34019KT 08/M00 A3005 RMK A01 T00821004  RH  055%=      5-min Rain = 0
KCR1 241343Z 34018KT 08/M00 A3005 RMK A01 T00821004  RH  055%=      5-min Rain = 0
KCR1 241344Z 34018KT 08/M00 A3005 RMK A01 T00821004  RH  055%=      5-min Rain = 0
KCR1 241345Z 34017KT 08/M00 A3005 RMK A01 T00821004  RH  055%=      5-min Rain = 0
KCR1 241346Z 34017KT 08/M00 A3005 RMK A01 T00821004  RH  055%=      5-min Rain = 0
KCR1 241347Z 34017KT 08/M00 A3005 RMK A01 T00821004  RH  055%=      5-min Rain = 0
KCR1 241348Z 34017KT 08/M00 A3006 RMK A01 T00821004  RH  055%=      5-min Rain = 0
KCR1 241349Z 34017KT 08/M00 A3006 RMK A01 T00831004  RH  055%=      5-min Rain = 0
KCR1 241350Z 34017KT 08/M00 A3006 RMK A01 T00831004  RH  054%=      5-min Rain = 0
KCR1 241351Z 34019G24KT 08/M00 A3006 RMK A01 T00831004  RH  054%=      5-min Rain = 0
KCR1 241352Z 34017KT 08/M00 A3006 RMK A01 T00831004  RH  054%=      5-min Rain = 0
KCR1 241353Z 34018KT 08/M00 A3006 RMK A01 T00841004  RH  054%=      5-min Rain = 0
KCR1 241354Z 34017KT 08/M00 A3006 RMK A01 T00831004  RH  054%=      5-min Rain = 0
KCR1 241355Z 35018KT 08/M00 A3006 RMK A01 T00831004  RH  054%=      5-min Rain = 0
KCR1 241356Z 35017KT 08/M00 A3006 RMK A01 T00841004  RH  054%=      5-min Rain = 0
KCR1 241357Z 34019KT 08/M00 A3007 RMK A01 T00831004  RH  054%=      5-min Rain = 0
KCR1 241358Z 34017KT 08/M01 A3007 RMK A01 T00831005  RH  054%=      5-min Rain = 0
KCR1 241359Z 35017KT 08/M00 A3007 RMK A01 T00831004  RH  054%=      5-min Rain = 0
KCR1 241400Z 35021KT 08/M00 A3007 RMK A01 T00831004  RH  054%=      5-min Rain = 0
KCR1 241401Z 35017G22KT 08/M01 A3007 RMK A01 T00841005  RH  054%=      5-min Rain = 0
KCR1 241402Z 34019KT 08/M00 A3007 RMK A01 T00841004  RH  054%=      5-min Rain = 0
KCR1 241403Z 34018KT 08/M01 A3007 RMK A01 T00841005  RH  053%=      5-min Rain = 0
KCR1 241404Z 35017KT 08/M01 A3007 RMK A01 T00841005  RH  053%=      5-min Rain = 0
KCR1 241405Z 35019G24KT 08/M01 A3007 RMK A01 T00841005  RH  054%=      5-min Rain = 0
KCR1 241406Z 35018KT 09/M01 A3007 RMK A01 T00851006  RH  053%=      5-min Rain = 0
KCR1 241407Z 34018KT 09/M01 A3008 RMK A01 T00851006  RH  053%=      5-min Rain = 0
KCR1 241408Z 35020KT 09/M01 A3008 RMK A01 T00851005  RH  053%=      5-min Rain = 0
KCR1 241409Z 34020KT 09/M01 A3008 RMK A01 T00851006  RH  053%=      5-min Rain = 0
KCR1 241410Z 34017KT 09/M01 A3008 RMK A01 T00851005  RH  053%=      5-min Rain = 0
KCR1 241411Z 34019KT 09/M01 A3008 RMK A01 T00851005  RH  053%=      5-min Rain = 0
KCR1 241412Z 34018KT 09/M01 A3008 RMK A01 T00851006  RH  053%=      5-min Rain = 0
KCR1 241413Z 34018KT 09/M01 A3008 RMK A01 T00851006  RH  053%=      5-min Rain = 0
KCR1 241414Z 34020KT 09/M01 A3008 RMK A01 T00851006  RH  053%=      5-min Rain = 0
KCR1 241415Z 35018KT 09/M01 A3008 RMK A01 T00851007  RH  052%=      5-min Rain = 0
KCR1 241416Z 35018G23KT 09/M01 A3008 RMK A01 T00851006  RH  053%=      5-min Rain = 0
KCR1 241417Z 35016G22KT 09/M01 A3008 RMK A01 T00861005  RH  053%=      5-min Rain = 0
KCR1 241418Z 34022G27KT 09/M01 A3008 RMK A01 T00861006  RH  053%=      5-min Rain = 0
KCR1 241419Z 35020G26KT 09/M01 A3009 RMK A01 T00861006  RH  052%=      5-min Rain = 0
KCR1 241420Z 35020KT 09/M01 A3009 RMK A01 T00861006  RH  052%=      5-min Rain = 0
KCR1 241421Z 35019G24KT 09/M01 A3009 RMK A01 T00861006  RH  052%=      5-min Rain = 0
KCR1 241422Z 34020KT 09/M01 A3009 RMK A01 T00861007  RH  052%=      5-min Rain = 0
KCR1 241423Z 35019KT 09/M01 A3009 RMK A01 T00861008  RH  052%=      5-min Rain = 0
KCR1 241424Z 34017KT 09/M01 A3009 RMK A01 T00871007  RH  052%=      5-min Rain = 0
KCR1 241425Z 35018KT 09/M01 A3009 RMK A01 T00871005  RH  052%=      5-min Rain = 0
KCR1 241426Z 34019KT 09/M01 A3009 RMK A01 T00871006  RH  052%=      5-min Rain = 0
KCR1 241427Z 34020KT 09/M01 A3009 RMK A01 T00871007  RH  052%=      5-min Rain = 0
KCR1 241428Z 35020KT 09/M01 A3009 RMK A01 T00871007  RH  051%=      5-min Rain = 0
KCR1 241429Z 35020KT 09/M01 A3009 RMK A01 T00871007  RH  052%=      5-min Rain = 0
KCR1 241430Z 35020KT 09/M01 A3009 RMK A01 T00871007  RH  051%=      5-min Rain = 0
KCR1 241431Z 35018KT 09/M01 A3009 RMK A01 T00881007  RH  051%=      5-min Rain = 0
KCR1 241432Z 34018KT 09/M01 A3009 RMK A01 T00881007  RH  052%=      5-min Rain = 0
KCR1 241433Z 35021KT 09/M01 A3009 RMK A01 T00881006  RH  051%=      5-min Rain = 0
KCR1 241434Z 35019KT 09/M01 A3009 RMK A01 T00881008  RH  051%=      5-min Rain = 0
KCR1 241435Z 35022KT 09/M01 A301 RMK A01 T00881007  RH  051%=      5-min Rain = 0
KCR1 241436Z 35020KT 09/M01 A301 RMK A01 T00881008  RH  051%=      5-min Rain = 0
KCR1 241437Z 35021KT 09/M01 A301 RMK A01 T00881008  RH  051%=      5-min Rain = 0
KCR1 241438Z 35019G24KT 09/M01 A301 RMK A01 T00881008  RH  051%=      5-min Rain = 0
KCR1 241439Z 34019G25KT 09/M01 A301 RMK A01 T00891007  RH  051%=      5-min Rain = 0
KCR1 241440Z 35019G24KT 09/M01 A301 RMK A01 T00891008  RH  050%=      5-min Rain = 0
KCR1 241441Z 35019KT 09/M01 A3011 RMK A01 T00901009  RH  050%=      5-min Rain = 0
KCR1 241442Z 35018G23KT 09/M01 A3011 RMK A01 T00901008  RH  050%=      5-min Rain = 0
KCR1 241443Z 35022G27KT 09/M01 A3011 RMK A01 T00901009  RH  050%=      5-min Rain = 0
KCR1 241444Z 34021KT 09/M01 A3011 RMK A01 T00901010  RH  050%=      5-min Rain = 0
KCR1 241445Z 35020KT 09/M01 A3011 RMK A01 T00901010  RH  049%=      5-min Rain = 0
KCR1 241446Z 35019KT 09/M01 A3011 RMK A01 T00911008  RH  050%=      5-min Rain = 0
KCR1 241447Z 35023G28KT 09/M01 A3011 RMK A01 T00911009  RH  049%=      5-min Rain = 0
KCR1 241448Z 35022KT 09/M01 A3011 RMK A01 T00911012  RH  049%=      5-min Rain = 0
KCR1 241449Z 34018G23KT 09/M01 A3011 RMK A01 T00901009  RH  050%=      5-min Rain = 0
KCR1 241450Z 35020KT 09/M01 A3012 RMK A01 T00911010  RH  049%=      5-min Rain = 0
KCR1 241451Z 35019G25KT 09/M01 A3012 RMK A01 T00911010  RH  049%=      5-min Rain = 0
KCR1 241452Z 35020G25KT 09/M01 A3012 RMK A01 T00911010  RH  049%=      5-min Rain = 0
KCR1 241453Z 34020KT 09/M01 A3012 RMK A01 T00921010  RH  049%=      5-min Rain = 0
KCR1 241454Z 35022G27KT 09/M01 A3012 RMK A01 T00921010  RH  049%=      5-min Rain = 0
KCR1 241455Z 35023KT 09/M01 A3012 RMK A01 T00921011  RH  048%=      5-min Rain = 0
KCR1 241456Z 35021G26KT 09/M01 A3012 RMK A01 T00921011  RH  048%=      5-min Rain = 0
KCR1 241457Z 34021G26KT 09/M01 A3012 RMK A01 T00921011  RH  048%=      5-min Rain = 0
KCR1 241458Z 35024KT 09/M01 A3012 RMK A01 T00921012  RH  048%=      5-min Rain = 0
KCR1 241459Z 35023KT 09/M01 A3012 RMK A01 T00921012  RH  048%=      5-min Rain = 0
KCR1 241500Z 36020G25KT 09/M01 A3012 RMK A01 T00911011  RH  049%=      5-min Rain = 0
KCR1 241501Z 34020KT 09/M01 A3012 RMK A01 T00921010  RH  049%=      5-min Rain = 0
KCR1 241502Z 35019G25KT 09/M01 A3012 RMK A01 T00931011  RH  048%=      5-min Rain = 0
KCR1 241503Z 35019KT 09/M01 A3012 RMK A01 T00931011  RH  048%=      5-min Rain = 0
KCR1 241504Z 35024KT 09/M01 A3012 RMK A01 T00931011  RH  048%=      5-min Rain = 0
KCR1 241505Z 35020G25KT 09/M01 A3013 RMK A01 T00931012  RH  048%=      5-min Rain = 0
KCR1 241506Z 35019KT 09/M01 A3013 RMK A01 T00931011  RH  048%=      5-min Rain = 0
KCR1 241507Z 35020G26KT 09/M01 A3013 RMK A01 T00941010  RH  048%=      5-min Rain = 0
KCR1 241508Z 35022KT 09/M01 A3013 RMK A01 T00941011  RH  048%=      5-min Rain = 0
KCR1 241509Z 35023KT 09/M01 A3013 RMK A01 T00941012  RH  048%=      5-min Rain = 0
KCR1 241510Z 35020KT 09/M01 A3013 RMK A01 T00931012  RH  048%=      5-min Rain = 0
KCR1 241511Z 35018KT 09/M01 A3013 RMK A01 T00941010  RH  048%=      5-min Rain = 0
KCR1 241512Z 35020G25KT 10/M01 A3013 RMK A01 T00951011  RH  048%=      5-min Rain = 0
KCR1 241513Z 35021KT 10/M01 A3013 RMK A01 T00951011  RH  048%=      5-min Rain = 0
KCR1 241514Z 35021KT 10/M01 A3014 RMK A01 T00951010  RH  048%=      5-min Rain = 0
KCR1 241515Z 35021KT 10/M01 A3014 RMK A01 T00951011  RH  047%=      5-min Rain = 0
KCR1 241516Z 35022KT 10/M01 A3013 RMK A01 T00951012  RH  047%=      5-min Rain = 0
KCR1 241517Z 35024KT 10/M01 A3013 RMK A01 T00951012  RH  047%=      5-min Rain = 0
KCR1 241518Z 36020KT 10/M01 A3014 RMK A01 T00951012  RH  047%=      5-min Rain = 0
KCR1 241519Z 00021KT 10/M01 A3014 RMK A01 T00961010  RH  048%=      5-min Rain = 0
KCR1 241520Z 35025KT 10/M01 A3014 RMK A01 T00961012  RH  047%=      5-min Rain = 0
KCR1 241521Z 35025KT 10/M01 A3014 RMK A01 T00961013  RH  047%=      5-min Rain = 0
KCR1 241522Z 00021KT 10/M01 A3014 RMK A01 T00961013  RH  046%=      5-min Rain = 0
KCR1 241523Z 35023KT 10/M01 A3014 RMK A01 T00971011  RH  047%=      5-min Rain = 0
KCR1 241524Z 35024KT 10/M01 A3014 RMK A01 T00981012  RH  046%=      5-min Rain = 0
KCR1 241525Z 35023KT 10/M01 A3014 RMK A01 T00971013  RH  046%=      5-min Rain = 0
KCR1 241526Z 36021KT 10/M01 A3014 RMK A01 T00971013  RH  046%=      5-min Rain = 0
KCR1 241527Z 36019KT 10/M01 A3015 RMK A01 T00971012  RH  047%=      5-min Rain = 0
KCR1 241528Z 35021KT 10/M01 A3015 RMK A01 T00981011  RH  047%=      5-min Rain = 0
KCR1 241529Z 35022KT 10/M01 A3015 RMK A01 T00991012  RH  046%=      5-min Rain = 0
KCR1 241530Z 35021KT 10/M01 A3015 RMK A01 T00981014  RH  046%=      5-min Rain = 0
KCR1 241531Z 36022KT 10/M01 A3015 RMK A01 T00981013  RH  046%=      5-min Rain = 0
KCR1 241532Z 35021KT 10/M01 A3015 RMK A01 T00981014  RH  046%=      5-min Rain = 0
KCR1 241533Z 35023KT 10/M01 A3015 RMK A01 T00981013  RH  046%=      5-min Rain = 0
KCR1 241534Z 35021KT 10/M01 A3015 RMK A01 T00981013  RH  046%=      5-min Rain = 0
KCR1 241535Z 35023KT 10/M01 A3015 RMK A01 T00981013  RH  046%=      5-min Rain = 0
KCR1 241536Z 36020KT 10/M01 A3015 RMK A01 T00991013  RH  046%=      5-min Rain = 0
KCR1 241537Z 36022KT 10/M01 A3016 RMK A01 T00991011  RH  046%=      5-min Rain = 0
KCR1 241538Z 36021KT 10/M01 A3016 RMK A01 T00991012  RH  046%=      5-min Rain = 0
KCR1 241539Z 35020KT 10/M01 A3016 RMK A01 T00991013  RH  046%=      5-min Rain = 0
KCR1 241540Z 35022KT 10/M01 A3016 RMK A01 T01001011  RH  046%=      5-min Rain = 0
KCR1 241541Z 36021KT 10/M01 A3016 RMK A01 T01011013  RH  045%=      5-min Rain = 0
KCR1 241542Z 01017KT 10/M01 A3016 RMK A01 T01011011  RH  046%=      5-min Rain = 0
KCR1 241543Z 00020KT 10/M01 A3016 RMK A01 T01031009  RH  046%=      5-min Rain = 0
KCR1 241544Z 01020KT 10/M01 A3016 RMK A01 T01031011  RH  045%=      5-min Rain = 0
KCR1 241545Z 36017KT 10/M01 A3016 RMK A01 T01031011  RH  045%=      5-min Rain = 0
KCR1 241546Z 36019KT 10/M01 A3016 RMK A01 T01041011  RH  045%=      5-min Rain = 0
KCR1 241547Z 36019KT 10/M01 A3017 RMK A01 T01041012  RH  045%=      5-min Rain = 0
KCR1 241548Z 36020KT 10/M01 A3016 RMK A01 T01041012  RH  045%=      5-min Rain = 0
KCR1 241549Z 36023KT 10/M01 A3017 RMK A01 T01031014  RH  044%=      5-min Rain = 0
KCR1 241550Z 00023KT 10/M02 A3017 RMK A01 T01021015  RH  044%=      5-min Rain = 0
KCR1 241551Z 00018G23KT 10/M01 A3017 RMK A01 T01011014  RH  044%=      5-min Rain = 0
KCR1 241552Z 36020KT 10/M01 A3017 RMK A01 T01031013  RH  045%=      5-min Rain = 0
KCR1 241553Z 36019KT 10/M01 A3017 RMK A01 T01031014  RH  044%=      5-min Rain = 0
KCR1 241554Z 36018KT 10/M01 A3017 RMK A01 T01041012  RH  044%=      5-min Rain = 0
KCR1 241555Z 01018KT 11/M01 A3017 RMK A01 T01051013  RH  044%=      5-min Rain = 0
KCR1 241556Z 01020KT 11/M01 A3017 RMK A01 T01051013  RH  044%=      5-min Rain = 0
KCR1 241557Z 00018G23KT 11/M01 A3017 RMK A01 T01071011  RH  044%=      5-min Rain = 0
KCR1 241558Z 01019KT 11/M01 A3017 RMK A01 T01091012  RH  043%=      5-min Rain = 0
KCR1 241559Z 00020KT 11/M01 A3017 RMK A01 T01091013  RH  043%=      5-min Rain = 0
KCR1 241600Z 01020KT 11/M02 A3017 RMK A01 T01091015  RH  042%=      5-min Rain = 0
KCR1 241601Z 01022KT 11/M02 A3017 RMK A01 T01091015  RH  042%=      5-min Rain = 0
KCR1 241602Z 00019KT 11/M02 A3017 RMK A01 T01081015  RH  042%=      5-min Rain = 0
KCR1 241603Z 01019KT 11/M02 A3017 RMK A01 T01091015  RH  042%=      5-min Rain = 0
KCR1 241604Z 01018KT 11/M02 A3017 RMK A01 T01081015  RH  042%=      5-min Rain = 0
KCR1 241605Z 01020KT 11/M01 A3017 RMK A01 T01091014  RH  042%=      5-min Rain = 0
KCR1 241606Z 01020KT 11/M01 A3017 RMK A01 T01101014  RH  042%=      5-min Rain = 0
KCR1 241607Z 01018KT 11/M01 A3017 RMK A01 T01111014  RH  042%=      5-min Rain = 0
KCR1 241608Z 02022KT 11/M02 A3017 RMK A01 T01101015  RH  042%=      5-min Rain = 0
KCR1 241609Z 01020G25KT 11/M02 A3017 RMK A01 T01091016  RH  042%=      5-min Rain = 0
KCR1 241610Z 00017G23KT 11/M01 A3017 RMK A01 T01091014  RH  042%=      5-min Rain = 0
KCR1 241611Z 01017KT 11/M01 A3017 RMK A01 T01111014  RH  042%=      5-min Rain = 0
KCR1 241612Z 02019KT 11/M02 A3017 RMK A01 T01121015  RH  041%=      5-min Rain = 0
KCR1 241613Z 00020KT 11/M02 A3017 RMK A01 T01121015  RH  041%=      5-min Rain = 0
KCR1 241614Z 35018KT 11/M02 A3017 RMK A01 T01111016  RH  041%=      5-min Rain = 0
KCR1 241615Z 36021KT 11/M02 A3017 RMK A01 T01101016  RH  041%=      5-min Rain = 0
KCR1 241616Z 01021KT 11/M02 A3017 RMK A01 T01121015  RH  041%=      5-min Rain = 0
KCR1 241617Z 36022KT 11/M02 A3017 RMK A01 T01111018  RH  041%=      5-min Rain = 0
KCR1 241618Z 00020KT 11/M02 A3017 RMK A01 T01101018  RH  041%=      5-min Rain = 0
KCR1 241619Z 01024KT 11/M02 A3017 RMK A01 T01101018  RH  041%=      5-min Rain = 0
KCR1 241620Z 01019KT 11/M02 A3017 RMK A01 T01101017  RH  041%=      5-min Rain = 0
KCR1 241621Z 01020G25KT 11/M02 A3017 RMK A01 T01121015  RH  041%=      5-min Rain = 0
KCR1 241622Z 01020KT 11/M02 A3017 RMK A01 T01121017  RH  040%=      5-min Rain = 0
KCR1 241623Z 01020KT 11/M02 A3017 RMK A01 T01121017  RH  041%=      5-min Rain = 0
KCR1 241624Z 36022KT 11/M02 A3017 RMK A01 T01121017  RH  041%=      5-min Rain = 0
KCR1 241625Z 00019KT 11/M02 A3017 RMK A01 T01111017  RH  041%=      5-min Rain = 0
KCR1 241626Z 01021KT 11/M02 A3017 RMK A01 T01121016  RH  041%=      5-min Rain = 0
KCR1 241627Z 00021KT 11/M02 A3017 RMK A01 T01131016  RH  041%=      5-min Rain = 0
KCR1 241628Z 00021KT 11/M02 A3017 RMK A01 T01131016  RH  041%=      5-min Rain = 0
KCR1 241629Z 36022KT 11/M02 A3017 RMK A01 T01131017  RH  040%=      5-min Rain = 0
KCR1 241630Z 35021KT 11/M02 A3017 RMK A01 T01131018  RH  040%=      5-min Rain = 0
KCR1 241631Z 00018KT 11/M02 A3017 RMK A01 T01121016  RH  041%=      5-min Rain = 0
KCR1 241632Z 01018KT 11/M02 A3017 RMK A01 T01141017  RH  040%=      5-min Rain = 0
KCR1 241633Z 36015KT 11/M02 A3017 RMK A01 T01131018  RH  040%=      5-min Rain = 0
KCR1 241634Z 00020KT 12/M01 A3017 RMK A01 T01151014  RH  041%=      5-min Rain = 0
KCR1 241635Z 01018KT 12/M02 A3017 RMK A01 T01161017  RH  040%=      5-min Rain = 0
KCR1 241636Z 01020KT 12/M02 A3017 RMK A01 T01161017  RH  040%=      5-min Rain = 0
KCR1 241637Z 01022KT 12/M02 A3017 RMK A01 T01161018  RH  039%=      5-min Rain = 0
KCR1 241638Z 00023KT 11/M02 A3017 RMK A01 T01141019  RH  039%=      5-min Rain = 0
KCR1 241639Z 01024KT 11/M02 A3017 RMK A01 T01131021  RH  039%=      5-min Rain = 0
KCR1 241640Z 00020KT 11/M02 A3017 RMK A01 T01121021  RH  040%=      5-min Rain = 0
KCR1 241641Z 01024KT 11/M02 A3017 RMK A01 T01121020  RH  040%=      5-min Rain = 0
KCR1 241642Z 00021KT 11/M02 A3017 RMK A01 T01121021  RH  039%=      5-min Rain = 0
KCR1 241643Z 36021KT 11/M02 A3017 RMK A01 T01131019  RH  040%=      5-min Rain = 0
KCR1 241644Z 00019KT 11/M02 A3017 RMK A01 T01141020  RH  039%=      5-min Rain = 0
KCR1 241645Z 02020G25KT 11/M02 A3018 RMK A01 T01131020  RH  039%=      5-min Rain = 0
KCR1 241646Z 01021KT 12/M02 A3018 RMK A01 T01151018  RH  039%=      5-min Rain = 0
KCR1 241647Z 02018KT 12/M02 A3018 RMK A01 T01151019  RH  039%=      5-min Rain = 0
KCR1 241648Z 02018KT 12/M02 A3018 RMK A01 T01171017  RH  039%=      5-min Rain = 0
KCR1 241649Z 02017KT 12/M02 A3018 RMK A01 T01191017  RH  039%=      5-min Rain = 0
KCR1 241650Z 01021KT 12/M02 A3018 RMK A01 T01191018  RH  038%=      5-min Rain = 0
KCR1 241651Z 00018KT 12/M02 A3018 RMK A01 T01181021  RH  038%=      5-min Rain = 0
KCR1 241652Z 00016KT 12/M02 A3018 RMK A01 T01181018  RH  039%=      5-min Rain = 0
KCR1 241653Z 01021KT 12/M01 A3018 RMK A01 T01221014  RH  039%=      5-min Rain = 0
KCR1 241654Z 01019KT 12/M02 A3018 RMK A01 T01211021  RH  037%=      5-min Rain = 0
KCR1 241655Z 01018KT 12/M02 A3017 RMK A01 T01171022  RH  038%=      5-min Rain = 0
KCR1 241656Z 01017KT 12/M02 A3017 RMK A01 T01181019  RH  038%=      5-min Rain = 0
KCR1 241657Z 35020KT 12/M02 A3017 RMK A01 T01201018  RH  038%=      5-min Rain = 0
KCR1 241658Z 00018KT 12/M02 A3017 RMK A01 T01211018  RH  038%=      5-min Rain = 0
KCR1 241659Z 35020KT 12/M02 A3017 RMK A01 T01231017  RH  038%=      5-min Rain = 0
KCR1 241700Z 35019KT 12/M02 A3017 RMK A01 T01221019  RH  037%=      5-min Rain = 0
KCR1 241701Z 35021KT 12/M02 A3017 RMK A01 T01201022  RH  037%=      5-min Rain = 0
KCR1 241702Z 00018G24KT 12/M02 A3018 RMK A01 T01191021  RH  038%=      5-min Rain = 0
KCR1 241703Z 00017KT 12/M02 A3017 RMK A01 T01201019  RH  038%=      5-min Rain = 0
KCR1 241704Z 00020G25KT 12/M02 A3018 RMK A01 T01231017  RH  038%=      5-min Rain = 0
KCR1 241705Z 01016KT 12/M02 A3018 RMK A01 T01231020  RH  037%=      5-min Rain = 0
KCR1 241706Z 36017KT 12/M02 A3018 RMK A01 T01221017  RH  038%=      5-min Rain = 0
KCR1 241707Z 36017KT 12/M02 A3018 RMK A01 T01231021  RH  037%=      5-min Rain = 0
KCR1 241708Z 00017G22KT 12/M02 A3018 RMK A01 T01211021  RH  037%=      5-min Rain = 0
KCR1 241709Z 01018KT 12/M02 A3018 RMK A01 T01211019  RH  038%=      5-min Rain = 0
KCR1 241710Z 02020KT 12/M02 A3018 RMK A01 T01231018  RH  037%=      5-min Rain = 0
KCR1 241711Z 02019KT 12/M02 A3018 RMK A01 T01231022  RH  036%=      5-min Rain = 0
KCR1 241712Z 01017KT 12/M02 A3018 RMK A01 T01211022  RH  037%=      5-min Rain = 0
KCR1 241713Z 00019KT 12/M02 A3018 RMK A01 T01211019  RH  038%=      5-min Rain = 0
KCR1 241714Z 01017KT 12/M02 A3018 RMK A01 T01211022  RH  037%=      5-min Rain = 0
KCR1 241715Z 01016KT 12/M02 A3018 RMK A01 T01201021  RH  037%=      5-min Rain = 0
KCR1 241716Z 00015KT 12/M02 A3018 RMK A01 T01211021  RH  037%=      5-min Rain = 0
KCR1 241717Z 01016G23KT 12/M02 A3018 RMK A01 T01221019  RH  038%=      5-min Rain = 0
KCR1 241718Z 01020KT 12/M02 A3018 RMK A01 T01241018  RH  037%=      5-min Rain = 0
KCR1 241719Z 01016KT 13/M02 A3019 RMK A01 T01251020  RH  037%=      5-min Rain = 0
KCR1 241720Z 02016KT 13/M02 A3018 RMK A01 T01251018  RH  037%=      5-min Rain = 0
KCR1 241721Z 01017KT 13/M02 A3018 RMK A01 T01251018  RH  037%=      5-min Rain = 0
KCR1 241722Z 00020KT 13/M02 A3018 RMK A01 T01251021  RH  036%=      5-min Rain = 0
KCR1 241723Z 00018KT 12/M02 A3018 RMK A01 T01231022  RH  036%=      5-min Rain = 0
KCR1 241724Z 35017KT 12/M02 A3018 RMK A01 T01231021  RH  037%=      5-min Rain = 0
KCR1 241725Z 36017KT 12/M02 A3018 RMK A01 T01231020  RH  037%=      5-min Rain = 0
KCR1 241726Z 35019KT 13/M02 A3018 RMK A01 T01251019  RH  037%=      5-min Rain = 0
KCR1 241727Z 01018KT 13/M02 A3018 RMK A01 T01251022  RH  036%=      5-min Rain = 0
KCR1 241728Z 00017KT 13/M02 A3018 RMK A01 T01251019  RH  037%=      5-min Rain = 0
KCR1 241729Z 00017G23KT 13/M02 A3018 RMK A01 T01251020  RH  036%=      5-min Rain = 0
KCR1 241730Z 01019KT 13/M02 A3018 RMK A01 T01271017  RH  037%=      5-min Rain = 0
KCR1 241731Z 02016KT 13/M02 A3018 RMK A01 T01291019  RH  036%=      5-min Rain = 0
KCR1 241732Z 01016KT 13/M02 A3018 RMK A01 T01271019  RH  036%=      5-min Rain = 0
KCR1 241733Z 01018KT 13/M02 A3018 RMK A01 T01281018  RH  036%=      5-min Rain = 0
KCR1 241734Z 01016KT 13/M02 A3018 RMK A01 T01291017  RH  036%=      5-min Rain = 0
KCR1 241735Z 02017KT 13/M02 A3018 RMK A01 T01301017  RH  036%=      5-min Rain = 0
KCR1 241736Z 01016KT 13/M02 A3018 RMK A01 T01291019  RH  036%=      5-min Rain = 0
KCR1 241737Z 02018KT 13/M02 A3018 RMK A01 T01291017  RH  036%=      5-min Rain = 0
KCR1 241738Z 02015G20KT 13/M02 A3018 RMK A01 T01311016  RH  036%=      5-min Rain = 0
KCR1 241739Z 01016KT 13/M02 A3018 RMK A01 T01331016  RH  036%=      5-min Rain = 0
KCR1 241740Z 01017KT 13/M02 A3018 RMK A01 T01331017  RH  035%=      5-min Rain = 0
KCR1 241741Z 02015KT 13/M02 A3018 RMK A01 T01311019  RH  035%=      5-min Rain = 0
KCR1 241742Z 01013KT 13/M02 A3018 RMK A01 T01321016  RH  036%=      5-min Rain = 0
KCR1 241743Z 35016KT 13/M02 A3018 RMK A01 T01341017  RH  035%=      5-min Rain = 0
KCR1 241744Z 36017G22KT 13/M02 A3018 RMK A01 T01321018  RH  035%=      5-min Rain = 0
KCR1 241745Z 00018KT 13/M02 A3018 RMK A01 T01321018  RH  035%=      5-min Rain = 0
KCR1 241746Z 00020KT 13/M02 A3018 RMK A01 T01321020  RH  035%=      5-min Rain = 0
KCR1 241747Z 36016KT 13/M02 A3018 RMK A01 T01291022  RH  035%=      5-min Rain = 0
KCR1 241748Z 35016KT 13/M02 A3018 RMK A01 T01281022  RH  035%=      5-min Rain = 0
KCR1 241749Z 36016KT 13/M02 A3018 RMK A01 T01281020  RH  036%=      5-min Rain = 0
KCR1 241750Z 01017G22KT 13/M02 A3018 RMK A01 T01311016  RH  036%=      5-min Rain = 0
KCR1 241751Z 01018KT 13/M02 A3018 RMK A01 T01321019  RH  035%=      5-min Rain = 0
KCR1 241752Z 01017KT 13/M02 A3018 RMK A01 T01321020  RH  035%=      5-min Rain = 0
KCR1 241753Z 02015KT 13/M02 A3018 RMK A01 T01311020  RH  035%=      5-min Rain = 0
KCR1 241754Z 02014KT 13/M02 A3018 RMK A01 T01311019  RH  035%=      5-min Rain = 0
KCR1 241755Z 02016G22KT 13/M02 A3018 RMK A01 T01311020  RH  035%=      5-min Rain = 0
KCR1 241756Z 02017KT 13/M02 A3018 RMK A01 T01321019  RH  035%=      5-min Rain = 0
KCR1 241757Z 02016KT 14/M01 A3018 RMK A01 T01351014  RH  036%=      5-min Rain = 0
KCR1 241758Z 02017KT 14/M02 A3018 RMK A01 T01361019  RH  034%=      5-min Rain = 0
KCR1 241759Z 03014KT 14/M02 A3018 RMK A01 T01351017  RH  035%=      5-min Rain = 0
KCR1 241800Z 01011KT 14/M02 A3018 RMK A01 T01351018  RH  035%=      5-min Rain = 0
KCR1 241801Z 00015KT 14/M01 A3018 RMK A01 T01371014  RH  035%=      5-min Rain = 0
KCR1 241802Z 36015KT 14/M02 A3018 RMK A01 T01371017  RH  034%=      5-min Rain = 0
KCR1 241803Z 36018KT 14/M02 A3017 RMK A01 T01361017  RH  034%=      5-min Rain = 0
KCR1 241804Z 02018KT 14/M02 A3018 RMK A01 T01371017  RH  035%=      5-min Rain = 0
KCR1 241805Z 03016KT 14/M02 A3018 RMK A01 T01361019  RH  034%=      5-min Rain = 0
KCR1 241806Z 02013KT 13/M02 A3017 RMK A01 T01341020  RH  034%=      5-min Rain = 0
KCR1 241807Z 01014KT 13/M02 A3017 RMK A01 T01331018  RH  035%=      5-min Rain = 0
KCR1 241808Z 02017KT 14/M02 A3017 RMK A01 T01351017  RH  035%=      5-min Rain = 0
KCR1 241809Z 03016KT 14/M02 A3017 RMK A01 T01361019  RH  034%=      5-min Rain = 0
KCR1 241810Z 01013KT 14/M02 A3017 RMK A01 T01351020  RH  034%=      5-min Rain = 0
KCR1 241811Z 02017KT 13/M02 A3017 RMK A01 T01341019  RH  035%=      5-min Rain = 0
KCR1 241812Z 02019KT 14/M02 A3017 RMK A01 T01361017  RH  035%=      5-min Rain = 0
KCR1 241813Z 02018KT 14/M02 A3017 RMK A01 T01361019  RH  034%=      5-min Rain = 0
KCR1 241814Z 01018KT 14/M02 A3017 RMK A01 T01361019  RH  034%=      5-min Rain = 0
KCR1 241815Z 02016KT 14/M02 A3017 RMK A01 T01361019  RH  034%=      5-min Rain = 0
KCR1 241816Z 02015KT 14/M02 A3017 RMK A01 T01361019  RH  034%=      5-min Rain = 0
KCR1 241817Z 02015KT 14/M02 A3017 RMK A01 T01381017  RH  034%=      5-min Rain = 0
KCR1 241818Z 02012KT 14/M02 A3017 RMK A01 T01391016  RH  034%=      5-min Rain = 0
KCR1 241819Z 01013G18KT 14/M01 A3017 RMK A01 T01421013  RH  034%=      5-min Rain = 0
KCR1 241820Z 02016G21KT 14/M01 A3017 RMK A01 T01441013  RH  034%=      5-min Rain = 0
KCR1 241821Z 03019KT 14/M02 A3017 RMK A01 T01441017  RH  033%=      5-min Rain = 0
KCR1 241822Z 01014KT 14/M02 A3017 RMK A01 T01411019  RH  033%=      5-min Rain = 0
KCR1 241823Z 01013KT 14/M02 A3017 RMK A01 T01411015  RH  034%=      5-min Rain = 0
KCR1 241824Z 02017KT 14/M01 A3017 RMK A01 T01431014  RH  034%=      5-min Rain = 0
KCR1 241825Z 01017KT 14/M02 A3017 RMK A01 T01411018  RH  033%=      5-min Rain = 0
KCR1 241826Z 01016KT 14/M02 A3017 RMK A01 T01391019  RH  033%=      5-min Rain = 0
KCR1 241827Z 00011KT 14/M02 A3017 RMK A01 T01381021  RH  033%=      5-min Rain = 0
KCR1 241828Z 01017KT 14/M02 A3017 RMK A01 T01381017  RH  034%=      5-min Rain = 0
KCR1 241829Z 00018KT 14/M02 A3017 RMK A01 T01401017  RH  034%=      5-min Rain = 0
KCR1 241830Z 01014KT 14/M02 A3017 RMK A01 T01401017  RH  034%=      5-min Rain = 0
KCR1 241831Z 01015KT 14/M02 A3017 RMK A01 T01421016  RH  034%=      5-min Rain = 0
KCR1 241832Z 00016KT 14/M02 A3017 RMK A01 T01421018  RH  033%=      5-min Rain = 0
KCR1 241833Z 36015KT 14/M02 A3017 RMK A01 T01411018  RH  033%=      5-min Rain = 0
KCR1 241834Z 00017G22KT 14/M02 A3017 RMK A01 T01411017  RH  034%=      5-min Rain = 0
KCR1 241835Z 01019KT 14/M02 A3017 RMK A01 T01421016  RH  033%=      5-min Rain = 0
KCR1 241836Z 01018KT 14/M02 A3017 RMK A01 T01411017  RH  033%=      5-min Rain = 0
KCR1 241837Z 01016KT 14/M02 A3016 RMK A01 T01411018  RH  033%=      5-min Rain = 0
KCR1 241838Z 01014KT 14/M02 A3016 RMK A01 T01411019  RH  033%=      5-min Rain = 0
KCR1 241839Z 01012G17KT 14/M02 A3016 RMK A01 T01401018  RH  033%=      5-min Rain = 0
KCR1 241840Z 01018KT 14/M01 A3016 RMK A01 T01421013  RH  034%=      5-min Rain = 0
KCR1 241841Z 01020KT 14/M02 A3016 RMK A01 T01441015  RH  033%=      5-min Rain = 0
KCR1 241842Z 01016KT 14/M02 A3016 RMK A01 T01441017  RH  033%=      5-min Rain = 0
KCR1 241843Z 01012KT 14/M02 A3016 RMK A01 T01431017  RH  033%=      5-min Rain = 0
KCR1 241844Z 01011KT 14/M02 A3016 RMK A01 T01431015  RH  033%=      5-min Rain = 0
KCR1 241845Z 01014KT 15/M01 A3016 RMK A01 T01451011  RH  034%=      5-min Rain = 0
KCR1 241846Z 01015KT 15/M01 A3016 RMK A01 T01481012  RH  033%=      5-min Rain = 0
KCR1 241847Z 36015KT 15/M02 A3016 RMK A01 T01471016  RH  033%=      5-min Rain = 0
KCR1 241848Z 36013KT 15/M02 A3016 RMK A01 T01451016  RH  033%=      5-min Rain = 0
KCR1 241849Z 00013KT 14/M02 A3016 RMK A01 T01431017  RH  033%=      5-min Rain = 0
KCR1 241850Z 36016KT 14/M02 A3016 RMK A01 T01431018  RH  033%=      5-min Rain = 0
KCR1 241851Z 35015G20KT 14/M02 A3015 RMK A01 T01421018  RH  033%=      5-min Rain = 0
KCR1 241852Z 01019KT 14/M02 A3015 RMK A01 T01431016  RH  033%=      5-min Rain = 0
KCR1 241853Z 01017KT 14/M02 A3016 RMK A01 T01431016  RH  033%=      5-min Rain = 0
KCR1 241854Z 01015KT 15/M02 A3015 RMK A01 T01451015  RH  033%=      5-min Rain = 0
KCR1 241855Z 00014KT 15/M01 A3015 RMK A01 T01461014  RH  033%=      5-min Rain = 0
KCR1 241856Z 36015KT 15/M01 A3015 RMK A01 T01471014  RH  033%=      5-min Rain = 0
KCR1 241857Z 36015KT 15/M02 A3015 RMK A01 T01471015  RH  033%=      5-min Rain = 0
KCR1 241858Z 00012KT 15/M02 A3015 RMK A01 T01461018  RH  032%=      5-min Rain = 0
KCR1 241859Z 01012KT 15/M02 A3015 RMK A01 T01451016  RH  033%=      5-min Rain = 0
KCR1 241900Z 35016KT 14/M02 A3015 RMK A01 T01441016  RH  033%=      5-min Rain = 0
KCR1 241901Z 00016KT 15/M02 A3015 RMK A01 T01461015  RH  033%=      5-min Rain = 0
KCR1 241902Z 00019KT 15/M02 A3015 RMK A01 T01471015  RH  033%=      5-min Rain = 0
KCR1 241903Z 36016KT 15/M02 A3015 RMK A01 T01481016  RH  032%=      5-min Rain = 0
KCR1 241904Z 36012KT 15/M02 A3015 RMK A01 T01461017  RH  033%=      5-min Rain = 0
KCR1 241905Z 00016G21KT 15/M02 A3015 RMK A01 T01461016  RH  033%=      5-min Rain = 0
KCR1 241906Z 00018KT 15/M01 A3015 RMK A01 T01481014  RH  033%=      5-min Rain = 0
KCR1 241907Z 00016KT 15/M02 A3015 RMK A01 T01491016  RH  032%=      5-min Rain = 0
KCR1 241908Z 01015KT 15/M02 A3015 RMK A01 T01471018  RH  032%=      5-min Rain = 0
KCR1 241909Z 36015KT 15/M02 A3015 RMK A01 T01471016  RH  033%=      5-min Rain = 0
KCR1 241910Z 00018KT 15/M01 A3015 RMK A01 T01481012  RH  033%=      5-min Rain = 0
KCR1 241911Z 01018KT 15/M01 A3015 RMK A01 T01511013  RH  032%=      5-min Rain = 0
KCR1 241912Z 00017KT 15/M02 A3015 RMK A01 T01511015  RH  032%=      5-min Rain = 0
KCR1 241913Z 00015KT 15/M02 A3015 RMK A01 T01491016  RH  032%=      5-min Rain = 0
KCR1 241914Z 01016KT 15/M02 A3015 RMK A01 T01491015  RH  032%=      5-min Rain = 0
KCR1 241915Z 02015KT 15/M02 A3014 RMK A01 T01491016  RH  032%=      5-min Rain = 0
KCR1 241916Z 00014KT 15/M02 A3014 RMK A01 T01491015  RH  032%=      5-min Rain = 0
KCR1 241917Z 01015KT 15/M01 A3014 RMK A01 T01501014  RH  032%=      5-min Rain = 0
KCR1 241918Z 36019KT 15/M01 A3014 RMK A01 T01511012  RH  032%=      5-min Rain = 0
KCR1 241919Z 02015KT 15/M01 A3014 RMK A01 T01521014  RH  032%=      5-min Rain = 0
KCR1 241920Z 01012KT 15/M01 A3014 RMK A01 T01531012  RH  032%=      5-min Rain = 0
KCR1 241921Z 00014G19KT 15/M01 A3014 RMK A01 T01541012  RH  032%=      5-min Rain = 0
KCR1 241922Z 36018KT 15/M01 A3014 RMK A01 T01541014  RH  032%=      5-min Rain = 0
KCR1 241923Z 36019KT 15/M01 A3014 RMK A01 T01541014  RH  031%=      5-min Rain = 0
KCR1 241924Z 36015KT 15/M02 A3014 RMK A01 T01521018  RH  031%=      5-min Rain = 0
KCR1 241925Z 35012KT 15/M02 A3014 RMK A01 T01491017  RH  032%=      5-min Rain = 0
KCR1 241926Z 02016KT 15/M01 A3014 RMK A01 T01501012  RH  033%=      5-min Rain = 0
KCR1 241927Z 03016KT 15/M01 A3014 RMK A01 T01541011  RH  032%=      5-min Rain = 0
KCR1 241928Z 02016KT 15/M01 A3013 RMK A01 T01541013  RH  032%=      5-min Rain = 0
KCR1 241929Z 02015KT 15/M01 A3013 RMK A01 T01531012  RH  032%=      5-min Rain = 0
KCR1 241930Z 02012KT 15/M01 A3013 RMK A01 T01541013  RH  032%=      5-min Rain = 0
KCR1 241931Z 02014KT 15/M01 A3013 RMK A01 T01541012  RH  032%=      5-min Rain = 0
KCR1 241932Z 02014KT 15/M01 A3013 RMK A01 T01541013  RH  032%=      5-min Rain = 0
KCR1 241933Z 02015KT 16/M01 A3013 RMK A01 T01551013  RH  032%=      5-min Rain = 0
KCR1 241934Z 01013KT 16/M01 A3013 RMK A01 T01551013  RH  031%=      5-min Rain = 0
KCR1 241935Z 00014KT 16/M01 A3013 RMK A01 T01551012  RH  032%=      5-min Rain = 0
KCR1 241936Z 00016KT 16/M01 A3013 RMK A01 T01551014  RH  031%=      5-min Rain = 0
KCR1 241937Z 01017KT 16/M01 A3013 RMK A01 T01571012  RH  032%=      5-min Rain = 0
KCR1 241938Z 00016G22KT 16/M02 A3013 RMK A01 T01571015  RH  031%=      5-min Rain = 0
KCR1 241939Z 00016KT 16/M01 A3013 RMK A01 T01561014  RH  031%=      5-min Rain = 0
KCR1 241940Z 00017KT 15/M02 A3013 RMK A01 T01541018  RH  031%=      5-min Rain = 0
KCR1 241941Z 01017KT 15/M02 A3013 RMK A01 T01531016  RH  031%=      5-min Rain = 0
KCR1 241942Z 01015KT 15/M02 A3013 RMK A01 T01531018  RH  031%=      5-min Rain = 0
KCR1 241943Z 01016KT 15/M02 A3013 RMK A01 T01521016  RH  031%=      5-min Rain = 0
KCR1 241944Z 01018G23KT 15/M02 A3012 RMK A01 T01541015  RH  031%=      5-min Rain = 0
KCR1 241945Z 01017KT 16/M02 A3012 RMK A01 T01551015  RH  031%=      5-min Rain = 0
KCR1 241946Z 01015KT 16/M01 A3012 RMK A01 T01581009  RH  032%=      5-min Rain = 0
KCR1 241947Z 01013KT 16/M02 A3012 RMK A01 T01601015  RH  030%=      5-min Rain = 0
KCR1 241948Z 01016KT 16/M01 A3012 RMK A01 T01571014  RH  031%=      5-min Rain = 0
KCR1 241949Z 01017KT 16/M01 A3012 RMK A01 T01591014  RH  031%=      5-min Rain = 0
KCR1 241950Z 01016KT 16/M01 A3012 RMK A01 T01601013  RH  031%=      5-min Rain = 0
KCR1 241951Z 02016KT 16/M01 A3012 RMK A01 T01611014  RH  030%=      5-min Rain = 0
KCR1 241952Z 02013KT 16/M02 A3012 RMK A01 T01611016  RH  030%=      5-min Rain = 0
KCR1 241953Z 01016G22KT 16/M02 A3012 RMK A01 T01581016  RH  030%=      5-min Rain = 0
KCR1 241954Z 02018KT 16/M02 A3012 RMK A01 T01591017  RH  030%=      5-min Rain = 0
KCR1 241955Z 04016KT 16/M02 A3012 RMK A01 T01581020  RH  030%=      5-min Rain = 0
KCR1 241956Z 04015KT 16/M02 A3012 RMK A01 T01571020  RH  030%=      5-min Rain = 0
KCR1 241957Z 03015KT 16/M02 A3012 RMK A01 T01571017  RH  030%=      5-min Rain = 0
KCR1 241958Z 03013KT 16/M02 A3012 RMK A01 T01591015  RH  030%=      5-min Rain = 0
KCR1 241959Z 02013G19KT 16/M02 A3012 RMK A01 T01601016  RH  030%=      5-min Rain = 0
KCR1 242000Z 01012KT 16/M02 A3012 RMK A01 T01611015  RH  030%=      5-min Rain = 0
KCR1 242001Z 01013KT 16/M02 A3012 RMK A01 T01611015  RH  030%=      5-min Rain = 0
KCR1 242002Z 02016G21KT 16/M01 A3012 RMK A01 T01611013  RH  030%=      5-min Rain = 0
KCR1 242003Z 03016KT 17/M01 A3012 RMK A01 T01651013  RH  030%=      5-min Rain = 0
KCR1 242004Z 03016KT 17/M02 A3012 RMK A01 T01651018  RH  029%=      5-min Rain = 0
KCR1 242005Z 03018KT 16/M02 A3012 RMK A01 T01631018  RH  029%=      5-min Rain = 0
KCR1 242006Z 02016KT 16/M02 A3012 RMK A01 T01611019  RH  029%=      5-min Rain = 0
KCR1 242007Z 02014KT 16/M02 A3012 RMK A01 T01611017  RH  030%=      5-min Rain = 0
KCR1 242008Z 03016KT 16/M02 A3011 RMK A01 T01611018  RH  029%=      5-min Rain = 0
KCR1 242009Z 04014KT 16/M02 A3011 RMK A01 T01611020  RH  029%=      5-min Rain = 0
KCR1 242010Z 03014KT 16/M02 A3011 RMK A01 T01591020  RH  029%=      5-min Rain = 0
KCR1 242011Z 01015KT 16/M02 A3012 RMK A01 T01611017  RH  029%=      5-min Rain = 0
KCR1 242012Z 01014KT 16/M02 A3012 RMK A01 T01611019  RH  029%=      5-min Rain = 0
KCR1 242013Z 01012KT 16/M02 A3012 RMK A01 T01611015  RH  030%=      5-min Rain = 0
KCR1 242014Z 02013KT 16/M01 A3012 RMK A01 T01631014  RH  030%=      5-min Rain = 0
KCR1 242015Z 02013KT 16/M02 A3012 RMK A01 T01631016  RH  029%=      5-min Rain = 0
KCR1 242016Z 03014KT 16/M01 A3012 RMK A01 T01631014  RH  030%=      5-min Rain = 0
KCR1 242017Z 02016KT 17/M02 A3012 RMK A01 T01651016  RH  029%=      5-min Rain = 0
KCR1 242018Z 03018KT 17/M02 A3012 RMK A01 T01671016  RH  029%=      5-min Rain = 0
KCR1 242019Z 02018KT 17/M02 A3012 RMK A01 T01661021  RH  028%=      5-min Rain = 0
KCR1 242020Z 02015G20KT 16/M02 A3012 RMK A01 T01621022  RH  028%=      5-min Rain = 0
KCR1 242021Z 02019KT 16/M02 A3012 RMK A01 T01631019  RH  029%=      5-min Rain = 0
KCR1 242022Z 01015KT 16/M02 A3012 RMK A01 T01611024  RH  028%=      5-min Rain = 0
KCR1 242023Z 01014KT 16/M02 A3012 RMK A01 T01601023  RH  028%=      5-min Rain = 0
KCR1 242024Z 02014KT 16/M02 A3012 RMK A01 T01601021  RH  029%=      5-min Rain = 0
KCR1 242025Z 01015KT 16/M02 A3012 RMK A01 T01611021  RH  029%=      5-min Rain = 0
KCR1 242026Z 00013KT 16/M02 A3012 RMK A01 T01611019  RH  029%=      5-min Rain = 0
KCR1 242027Z 03015KT 16/M02 A3012 RMK A01 T01621016  RH  030%=      5-min Rain = 0
KCR1 242028Z 04016KT 16/M02 A3011 RMK A01 T01631021  RH  028%=      5-min Rain = 0
KCR1 242029Z 03014KT 16/M02 A3012 RMK A01 T01621022  RH  028%=      5-min Rain = 0
KCR1 242030Z 03013G18KT 16/M02 A3012 RMK A01 T01601023  RH  028%=      5-min Rain = 0
KCR1 242031Z 04017KT 16/M02 A3012 RMK A01 T01621017  RH  029%=      5-min Rain = 0
KCR1 242032Z 03016KT 17/M02 A3012 RMK A01 T01651018  RH  029%=      5-min Rain = 0
KCR1 242033Z 03013KT 17/M02 A3012 RMK A01 T01661021  RH  028%=      5-min Rain = 0
KCR1 242034Z 02014KT 16/M02 A3012 RMK A01 T01641020  RH  028%=      5-min Rain = 0
KCR1 242035Z 02013KT 16/M02 A3012 RMK A01 T01631019  RH  029%=      5-min Rain = 0
KCR1 242036Z 01011KT 16/M02 A3012 RMK A01 T01631019  RH  029%=      5-min Rain = 0
KCR1 242037Z 03014KT 16/M02 A3012 RMK A01 T01631019  RH  029%=      5-min Rain = 0
KCR1 242038Z 02017KT 17/M02 A3012 RMK A01 T01651019  RH  028%=      5-min Rain = 0
KCR1 242039Z 02015KT 16/M02 A3012 RMK A01 T01631024  RH  028%=      5-min Rain = 0
KCR1 242040Z 02017KT 16/M02 A3012 RMK A01 T01621023  RH  028%=      5-min Rain = 0
KCR1 242041Z 01018KT 16/M03 A3012 RMK A01 T01621025  RH  028%=      5-min Rain = 0
KCR1 242042Z 03017KT 16/M03 A3012 RMK A01 T01621026  RH  028%=      5-min Rain = 0
KCR1 242043Z 04016KT 16/M03 A3012 RMK A01 T01631025  RH  028%=      5-min Rain = 0
KCR1 242044Z 04015KT 16/M03 A3012 RMK A01 T01621026  RH  027%=      5-min Rain = 0
KCR1 242045Z 02015KT 16/M02 A3012 RMK A01 T01631021  RH  028%=      5-min Rain = 0
KCR1 242046Z 02014G20KT 17/M02 A3012 RMK A01 T01651023  RH  027%=      5-min Rain = 0
KCR1 242047Z 02020KT 16/M02 A3012 RMK A01 T01641023  RH  028%=      5-min Rain = 0
KCR1 242048Z 02017G22KT 16/M02 A3012 RMK A01 T01631022  RH  028%=      5-min Rain = 0
KCR1 242049Z 01015KT 16/M02 A3012 RMK A01 T01631022  RH  028%=      5-min Rain = 0
KCR1 242050Z 01015KT 16/M02 A3012 RMK A01 T01641021  RH  028%=      5-min Rain = 0
KCR1 242051Z 02015KT 17/M02 A3012 RMK A01 T01651022  RH  028%=      5-min Rain = 0
KCR1 242052Z 02012KT 16/M02 A3012 RMK A01 T01641023  RH  028%=      5-min Rain = 0
KCR1 242053Z 02015G20KT 16/M02 A3012 RMK A01 T01631019  RH  029%=      5-min Rain = 0
KCR1 242054Z 01016KT 17/M02 A3012 RMK A01 T01661023  RH  027%=      5-min Rain = 0
KCR1 242055Z 01014KT 16/M03 A3012 RMK A01 T01641028  RH  027%=      5-min Rain = 0
KCR1 242056Z 02014KT 16/M03 A3012 RMK A01 T01621025  RH  028%=      5-min Rain = 0
KCR1 242057Z 04017KT 16/M03 A3012 RMK A01 T01631027  RH  027%=      5-min Rain = 0
KCR1 242058Z 02015KT 16/M03 A3012 RMK A01 T01641030  RH  026%=      5-min Rain = 0
KCR1 242059Z 03014KT 17/M02 A3012 RMK A01 T01651023  RH  028%=      5-min Rain = 0
KCR1 242100Z 04015KT 17/M02 A3012 RMK A01 T01671019  RH  028%=      5-min Rain = 0
KCR1 242101Z 04014KT 17/M02 A3012 RMK A01 T01671021  RH  027%=      5-min Rain = 0
KCR1 242102Z 03014KT 17/M02 A3012 RMK A01 T01661019  RH  028%=      5-min Rain = 0
KCR1 242103Z 02012KT 17/M02 A3012 RMK A01 T01671020  RH  028%=      5-min Rain = 0
KCR1 242104Z 03015KT 17/M02 A3012 RMK A01 T01671019  RH  028%=      5-min Rain = 0
KCR1 242105Z 03017KT 17/M02 A3012 RMK A01 T01671021  RH  028%=      5-min Rain = 0
KCR1 242106Z 03015KT 17/M02 A3012 RMK A01 T01671019  RH  028%=      5-min Rain = 0
KCR1 242107Z 03013KT 17/M02 A3012 RMK A01 T01701018  RH  028%=      5-min Rain = 0
KCR1 242108Z 03015KT 17/M02 A3011 RMK A01 T01701021  RH  027%=      5-min Rain = 0
KCR1 242109Z 02015KT 17/M02 A3012 RMK A01 T01671024  RH  027%=      5-min Rain = 0
KCR1 242110Z 02015KT 17/M02 A3012 RMK A01 T01661021  RH  028%=      5-min Rain = 0
KCR1 242111Z 02014KT 17/M02 A3011 RMK A01 T01661024  RH  027%=      5-min Rain = 0
KCR1 242112Z 02015KT 16/M03 A3011 RMK A01 T01641026  RH  027%=      5-min Rain = 0
KCR1 242113Z 03014KT 16/M02 A3011 RMK A01 T01631024  RH  028%=      5-min Rain = 0
KCR1 242114Z 03017KT 16/M02 A3011 RMK A01 T01641024  RH  027%=      5-min Rain = 0
KCR1 242115Z 04015KT 17/M03 A3011 RMK A01 T01661026  RH  027%=      5-min Rain = 0
KCR1 242116Z 03013KT 17/M03 A3011 RMK A01 T01661027  RH  027%=      5-min Rain = 0
KCR1 242117Z 03013KT 17/M03 A3011 RMK A01 T01661025  RH  027%=      5-min Rain = 0
KCR1 242118Z 04018KT 17/M03 A3011 RMK A01 T01671028  RH  026%=      5-min Rain = 0
KCR1 242119Z 04019KT 17/M03 A3011 RMK A01 T01661033  RH  025%=      5-min Rain = 0
KCR1 242120Z 04016KT 17/M03 A3011 RMK A01 T01661027  RH  027%=      5-min Rain = 0
KCR1 242121Z 05018KT 17/M03 A3011 RMK A01 T01661025  RH  027%=      5-min Rain = 0
KCR1 242122Z 05018KT 17/M03 A3011 RMK A01 T01661026  RH  027%=      5-min Rain = 0
KCR1 242123Z 04015KT 17/M02 A3011 RMK A01 T01661024  RH  027%=      5-min Rain = 0
KCR1 242124Z 04013KT 17/M02 A3011 RMK A01 T01661024  RH  027%=      5-min Rain = 0
KCR1 242125Z 04016KT 17/M02 A3011 RMK A01 T01671023  RH  027%=      5-min Rain = 0
KCR1 242126Z 03021KT 17/M02 A3011 RMK A01 T01681023  RH  027%=      5-min Rain = 0
KCR1 242127Z 03017KT 17/M03 A3011 RMK A01 T01661026  RH  027%=      5-min Rain = 0
KCR1 242128Z 02015KT 17/M02 A3011 RMK A01 T01651024  RH  027%=      5-min Rain = 0
KCR1 242129Z 03014KT 17/M02 A3011 RMK A01 T01661022  RH  028%=      5-min Rain = 0
KCR1 242130Z 03014KT 17/M02 A3011 RMK A01 T01681020  RH  028%=      5-min Rain = 0
KCR1 242131Z 03016KT 17/M03 A3011 RMK A01 T01671025  RH  027%=      5-min Rain = 0
KCR1 242132Z 03015KT 17/M03 A3011 RMK A01 T01651026  RH  027%=      5-min Rain = 0
KCR1 242133Z 04016KT 16/M03 A3011 RMK A01 T01631025  RH  027%=      5-min Rain = 0
KCR1 242134Z 04016KT 16/M03 A3011 RMK A01 T01641029  RH  027%=      5-min Rain = 0
KCR1 242135Z 03018KT 17/M03 A3011 RMK A01 T01651031  RH  026%=      5-min Rain = 0
KCR1 242136Z 03016KT 17/M03 A3011 RMK A01 T01661034  RH  025%=      5-min Rain = 0
KCR1 242137Z 03015KT 17/M04 A3011 RMK A01 T01661037  RH  025%=      5-min Rain = 0
KCR1 242138Z 04017KT 17/M03 A3011 RMK A01 T01661029  RH  026%=      5-min Rain = 0
KCR1 242139Z 04016KT 17/M03 A3011 RMK A01 T01661029  RH  026%=      5-min Rain = 0
KCR1 242140Z 04014G20KT 17/M03 A3011 RMK A01 T01651029  RH  026%=      5-min Rain = 0
KCR1 242141Z 04017KT 17/M03 A3011 RMK A01 T01651031  RH  026%=      5-min Rain = 0
KCR1 242142Z 03016KT 17/M03 A3011 RMK A01 T01661031  RH  026%=      5-min Rain = 0
KCR1 242143Z 02013KT 17/M03 A3011 RMK A01 T01651030  RH  026%=      5-min Rain = 0
KCR1 242144Z 03014KT 16/M03 A3011 RMK A01 T01641030  RH  026%=      5-min Rain = 0
KCR1 242145Z 03014KT 16/M03 A3011 RMK A01 T01641026  RH  027%=      5-min Rain = 0
KCR1 242146Z 03016KT 17/M03 A3011 RMK A01 T01651026  RH  027%=      5-min Rain = 0
KCR1 242147Z 04017KT 17/M03 A3011 RMK A01 T01661028  RH  026%=      5-min Rain = 0
KCR1 242148Z 03018KT 17/M03 A3011 RMK A01 T01671028  RH  026%=      5-min Rain = 0
KCR1 242149Z 03016KT 17/M03 A3011 RMK A01 T01651031  RH  026%=      5-min Rain = 0
KCR1 242150Z 02015KT 16/M03 A3011 RMK A01 T01631031  RH  026%=      5-min Rain = 0
KCR1 242151Z 04014KT 16/M03 A3011 RMK A01 T01631029  RH  027%=      5-min Rain = 0
KCR1 242152Z 03013KT 16/M03 A3011 RMK A01 T01641028  RH  027%=      5-min Rain = 0
KCR1 242153Z 03016KT 17/M03 A3011 RMK A01 T01661029  RH  026%=      5-min Rain = 0
KCR1 242154Z 03016KT 17/M03 A3011 RMK A01 T01671028  RH  026%=      5-min Rain = 0
KCR1 242155Z 04015KT 17/M03 A3011 RMK A01 T01661034  RH  025%=      5-min Rain = 0
KCR1 242156Z 03015KT 16/M03 A3011 RMK A01 T01641031  RH  026%=      5-min Rain = 0
KCR1 242157Z 03014KT 16/M03 A3011 RMK A01 T01631033  RH  026%=      5-min Rain = 0
KCR1 242158Z 02014KT 16/M03 A3011 RMK A01 T01631032  RH  026%=      5-min Rain = 0
KCR1 242159Z 03017KT 16/M03 A3011 RMK A01 T01631030  RH  027%=      5-min Rain = 0
KCR1 242200Z 04017KT 16/M03 A3011 RMK A01 T01641030  RH  026%=      5-min Rain = 0
KCR1 242201Z 05015KT 16/M03 A3011 RMK A01 T01641031  RH  026%=      5-min Rain = 0
KCR1 242202Z 05014KT 16/M03 A3011 RMK A01 T01641030  RH  026%=      5-min Rain = 0
KCR1 242203Z 04013KT 16/M03 A3011 RMK A01 T01631030  RH  027%=      5-min Rain = 0
KCR1 242204Z 04013KT 16/M03 A3011 RMK A01 T01631026  RH  027%=      5-min Rain = 0
KCR1 242205Z 03013KT 16/M03 A3011 RMK A01 T01641027  RH  027%=      5-min Rain = 0
KCR1 242206Z 04014KT 16/M03 A3011 RMK A01 T01641029  RH  026%=      5-min Rain = 0
KCR1 242207Z 05014KT 16/M03 A3011 RMK A01 T01641028  RH  027%=      5-min Rain = 0
KCR1 242208Z 05015KT 16/M03 A3011 RMK A01 T01641029  RH  026%=      5-min Rain = 0
KCR1 242209Z 04014KT 16/M03 A3011 RMK A01 T01641026  RH  027%=      5-min Rain = 0
KCR1 242210Z 04013KT 17/M03 A3011 RMK A01 T01661027  RH  027%=      5-min Rain = 0
KCR1 242211Z 05012KT 17/M03 A3011 RMK A01 T01651026  RH  027%=      5-min Rain = 0
KCR1 242212Z 03012KT 17/M02 A3011 RMK A01 T01651024  RH  027%=      5-min Rain = 0
KCR1 242213Z 02013KT 17/M03 A3011 RMK A01 T01661027  RH  027%=      5-min Rain = 0
KCR1 242214Z 02014KT 17/M03 A3011 RMK A01 T01661027  RH  027%=      5-min Rain = 0
KCR1 242215Z 03015KT 17/M03 A3011 RMK A01 T01661030  RH  026%=      5-min Rain = 0
KCR1 242216Z 04016KT 17/M03 A3011 RMK A01 T01651029  RH  026%=      5-min Rain = 0
KCR1 242217Z 03015KT 17/M03 A3011 RMK A01 T01651031  RH  026%=      5-min Rain = 0
KCR1 242218Z 03013KT 16/M03 A3011 RMK A01 T01641031  RH  026%=      5-min Rain = 0
KCR1 242219Z 03012KT 17/M03 A3011 RMK A01 T01651026  RH  027%=      5-min Rain = 0
KCR1 242220Z 03014KT 17/M03 A3011 RMK A01 T01661028  RH  026%=      5-min Rain = 0
KCR1 242221Z 04016KT 17/M03 A3011 RMK A01 T01661025  RH  027%=      5-min Rain = 0
KCR1 242222Z 04019KT 17/M03 A301 RMK A01 T01651030  RH  026%=      5-min Rain = 0
KCR1 242223Z 05015KT 16/M03 A301 RMK A01 T01641030  RH  026%=      5-min Rain = 0
KCR1 242224Z 04014KT 16/M03 A301 RMK A01 T01631029  RH  027%=      5-min Rain = 0
KCR1 242225Z 04014KT 16/M03 A301 RMK A01 T01641029  RH  027%=      5-min Rain = 0
KCR1 242226Z 04014KT 16/M03 A301 RMK A01 T01641029  RH  027%=      5-min Rain = 0
KCR1 242227Z 03013KT 16/M03 A301 RMK A01 T01631032  RH  026%=      5-min Rain = 0
KCR1 242228Z 04015KT 16/M03 A301 RMK A01 T01631030  RH  027%=      5-min Rain = 0
KCR1 242229Z 03016KT 16/M03 A301 RMK A01 T01631029  RH  027%=      5-min Rain = 0
KCR1 242230Z 03016KT 16/M03 A301 RMK A01 T01631027  RH  027%=      5-min Rain = 0
KCR1 242231Z 03013KT 16/M03 A301 RMK A01 T01631030  RH  027%=      5-min Rain = 0
KCR1 242232Z 03013KT 16/M03 A301 RMK A01 T01611028  RH  027%=      5-min Rain = 0
KCR1 242233Z 03014KT 16/M03 A301 RMK A01 T01621028  RH  027%=      5-min Rain = 0
KCR1 242234Z 03013KT 16/M03 A301 RMK A01 T01611031  RH  027%=      5-min Rain = 0
KCR1 242235Z 03013KT 16/M03 A301 RMK A01 T01601031  RH  027%=      5-min Rain = 0
KCR1 242236Z 02013KT 16/M03 A301 RMK A01 T01601031  RH  027%=      5-min Rain = 0
KCR1 242237Z 02011KT 16/M03 A301 RMK A01 T01601031  RH  027%=      5-min Rain = 0
KCR1 242238Z 02016KT 16/M03 A301 RMK A01 T01601030  RH  027%=      5-min Rain = 0
KCR1 242239Z 04015KT 16/M03 A301 RMK A01 T01611027  RH  027%=      5-min Rain = 0
KCR1 242240Z 05014KT 16/M03 A301 RMK A01 T01631027  RH  027%=      5-min Rain = 0
KCR1 242241Z 05013KT 16/M03 A301 RMK A01 T01631028  RH  027%=      5-min Rain = 0
KCR1 242242Z 04014KT 16/M03 A301 RMK A01 T01631027  RH  027%=      5-min Rain = 0
KCR1 242243Z 03015KT 16/M03 A301 RMK A01 T01631028  RH  027%=      5-min Rain = 0
KCR1 242244Z 04013KT 16/M03 A3011 RMK A01 T01611028  RH  027%=      5-min Rain = 0
KCR1 242245Z 03012KT 16/M03 A3011 RMK A01 T01611027  RH  027%=      5-min Rain = 0
KCR1 242246Z 04015KT 16/M03 A301 RMK A01 T01621027  RH  027%=      5-min Rain = 0
KCR1 242247Z 04013KT 16/M03 A301 RMK A01 T01611029  RH  027%=      5-min Rain = 0
KCR1 242248Z 04012KT 16/M03 A301 RMK A01 T01611028  RH  027%=      5-min Rain = 0
KCR1 242249Z 05013KT 16/M03 A301 RMK A01 T01611029  RH  027%=      5-min Rain = 0
KCR1 242250Z 03013KT 16/M03 A3011 RMK A01 T01611029  RH  027%=      5-min Rain = 0
KCR1 242251Z 02014KT 16/M03 A3011 RMK A01 T01611028  RH  027%=      5-min Rain = 0
KCR1 242252Z 03014KT 16/M03 A3011 RMK A01 T01611029  RH  027%=      5-min Rain = 0
KCR1 242253Z 03015KT 16/M03 A3011 RMK A01 T01611029  RH  027%=      5-min Rain = 0
KCR1 242254Z 03014KT 16/M03 A3011 RMK A01 T01611029  RH  027%=      5-min Rain = 0
KCR1 242255Z 03015KT 16/M03 A3011 RMK A01 T01611029  RH  027%=      5-min Rain = 0
KCR1 242256Z 03012KT 16/M03 A3011 RMK A01 T01611030  RH  027%=      5-min Rain = 0
KCR1 242257Z 02012KT 16/M03 A3011 RMK A01 T01601029  RH  027%=      5-min Rain = 0
KCR1 242258Z 02014KT 16/M03 A3011 RMK A01 T01601029  RH  027%=      5-min Rain = 0
KCR1 242259Z 02013KT 16/M03 A3011 RMK A01 T01591030  RH  027%=      5-min Rain = 0
KCR1 242300Z 03009KT 16/M03 A3011 RMK A01 T01591029  RH  027%=      5-min Rain = 0
KCR1 242301Z 03009KT 16/M03 A3011 RMK A01 T01601027  RH  028%=      5-min Rain = 0
KCR1 242302Z 04010KT 16/M03 A3011 RMK A01 T01601029  RH  027%=      5-min Rain = 0
KCR1 242303Z 03013KT 16/M03 A3011 RMK A01 T01601029  RH  027%=      5-min Rain = 0
KCR1 242304Z 03014KT 16/M03 A3011 RMK A01 T01601030  RH  027%=      5-min Rain = 0
KCR1 242305Z 03012KT 16/M03 A3011 RMK A01 T01601027  RH  028%=      5-min Rain = 0
KCR1 242306Z 04011KT 16/M03 A3011 RMK A01 T01611025  RH  028%=      5-min Rain = 0
KCR1 242307Z 04012KT 16/M03 A3011 RMK A01 T01611026  RH  028%=      5-min Rain = 0
KCR1 242308Z 06013KT 16/M03 A3011 RMK A01 T01621028  RH  027%=      5-min Rain = 0
KCR1 242309Z 05015KT 16/M03 A3011 RMK A01 T01621034  RH  026%=      5-min Rain = 0
KCR1 242310Z 05013KT 16/M03 A3011 RMK A01 T01611034  RH  026%=      5-min Rain = 0
KCR1 242311Z 05013KT 16/M04 A3011 RMK A01 T01601037  RH  026%=      5-min Rain = 0
KCR1 242312Z 06013KT 16/M04 A3011 RMK A01 T01601037  RH  026%=      5-min Rain = 0
KCR1 242313Z 05015KT 16/M04 A3011 RMK A01 T01601036  RH  026%=      5-min Rain = 0
KCR1 242314Z 05014KT 16/M04 A3011 RMK A01 T01591037  RH  026%=      5-min Rain = 0
KCR1 242315Z 05013KT 16/M04 A3011 RMK A01 T01591037  RH  026%=      5-min Rain = 0
KCR1 242316Z 05012KT 16/M03 A3011 RMK A01 T01581033  RH  027%=      5-min Rain = 0
KCR1 242317Z 04014KT 16/M03 A3011 RMK A01 T01591030  RH  027%=      5-min Rain = 0
KCR1 242318Z 04013KT 16/M03 A3011 RMK A01 T01591032  RH  027%=      5-min Rain = 0
KCR1 242319Z 04012KT 16/M03 A3011 RMK A01 T01591030  RH  027%=      5-min Rain = 0
KCR1 242320Z 04012KT 16/M03 A3011 RMK A01 T01591028  RH  028%=      5-min Rain = 0
KCR1 242321Z 04014KT 16/M03 A3011 RMK A01 T01591030  RH  027%=      5-min Rain = 0
KCR1 242322Z 04013KT 16/M04 A3011 RMK A01 T01581035  RH  026%=      5-min Rain = 0
KCR1 242323Z 05014KT 16/M04 A3011 RMK A01 T01571036  RH  026%=      5-min Rain = 0
KCR1 242324Z 05014KT 16/M04 A3011 RMK A01 T01571035  RH  027%=      5-min Rain = 0
KCR1 242325Z 05016KT 16/M04 A3011 RMK A01 T01561036  RH  026%=      5-min Rain = 0
KCR1 242326Z 05014KT 16/M04 A3011 RMK A01 T01551036  RH  027%=      5-min Rain = 0
KCR1 242327Z 05015KT 16/M03 A3011 RMK A01 T01561033  RH  027%=      5-min Rain = 0
KCR1 242328Z 05014KT 16/M04 A3011 RMK A01 T01551035  RH  027%=      5-min Rain = 0
KCR1 242329Z 05013KT 15/M04 A3011 RMK A01 T01541037  RH  027%=      5-min Rain = 0
KCR1 242330Z 05012KT 16/M04 A3011 RMK A01 T01551036  RH  027%=      5-min Rain = 0
KCR1 242331Z 05014KT 15/M03 A3011 RMK A01 T01541034  RH  027%=      5-min Rain = 0
KCR1 242332Z 04014KT 15/M04 A3011 RMK A01 T01541035  RH  027%=      5-min Rain = 0
KCR1 242333Z 04012KT 15/M03 A3011 RMK A01 T01541034  RH  027%=      5-min Rain = 0
KCR1 242334Z 05012KT 15/M03 A3011 RMK A01 T01541033  RH  027%=      5-min Rain = 0
KCR1 242335Z 05011KT 15/M03 A3011 RMK A01 T01541033  RH  027%=      5-min Rain = 0
KCR1 242336Z 05010KT 15/M03 A3011 RMK A01 T01541030  RH  028%=      5-min Rain = 0
KCR1 242337Z 05011KT 15/M03 A3011 RMK A01 T01541029  RH  028%=      5-min Rain = 0
KCR1 242338Z 04010KT 15/M03 A3011 RMK A01 T01541028  RH  028%=      5-min Rain = 0
KCR1 242339Z 04010KT 15/M03 A3011 RMK A01 T01541028  RH  029%=      5-min Rain = 0
KCR1 242340Z 04013KT 15/M03 A3011 RMK A01 T01531030  RH  028%=      5-min Rain = 0
KCR1 242341Z 05014KT 15/M03 A3011 RMK A01 T01531032  RH  028%=      5-min Rain = 0
KCR1 242342Z 04014KT 15/M04 A3011 RMK A01 T01521036  RH  027%=      5-min Rain = 0
KCR1 242343Z 04013KT 15/M04 A3011 RMK A01 T01511036  RH  027%=      5-min Rain = 0
KCR1 242344Z 04014KT 15/M04 A3011 RMK A01 T01511035  RH  027%=      5-min Rain = 0
KCR1 242345Z 04012KT 15/M04 A3011 RMK A01 T01501037  RH  027%=      5-min Rain = 0
KCR1 242346Z 03013KT 15/M03 A3011 RMK A01 T01501034  RH  028%=      5-min Rain = 0
KCR1 242347Z 03012KT 15/M04 A3011 RMK A01 T01501036  RH  028%=      5-min Rain = 0
KCR1 242348Z 04012KT 15/M04 A3011 RMK A01 T01491036  RH  028%=      5-min Rain = 0
KCR1 242349Z 04014KT 15/M04 A3011 RMK A01 T01491036  RH  028%=      5-min Rain = 0
KCR1 242350Z 05013KT 15/M04 A3011 RMK A01 T01491037  RH  028%=      5-min Rain = 0
KCR1 242351Z 05012KT 15/M04 A3011 RMK A01 T01491035  RH  028%=      5-min Rain = 0
KCR1 242352Z 05012KT 15/M04 A3011 RMK A01 T01481035  RH  028%=      5-min Rain = 0
KCR1 242353Z 05011KT 15/M03 A3011 RMK A01 T01481033  RH  029%=      5-min Rain = 0
KCR1 242354Z 05012KT 15/M03 A3011 RMK A01 T01471033  RH  029%=      5-min Rain = 0
KCR1 242355Z 05012KT 15/M03 A3011 RMK A01 T01471033  RH  029%=      5-min Rain = 0
KCR1 242356Z 05012KT 15/M03 A3011 RMK A01 T01461033  RH  029%=      5-min Rain = 0
KCR1 242357Z 04011KT 15/M03 A3011 RMK A01 T01461033  RH  029%=      5-min Rain = 0
KCR1 242358Z 05011KT 15/M03 A3011 RMK A01 T01461032  RH  029%=      5-min Rain = 0
KCR1 242359Z 04011KT 15/M03 A3012 RMK A01 T01451031  RH  029%=      5-min Rain = 0
KCR1 250000Z 04010KT 15/M03 A3012 RMK A01 T01451029  RH  030%=      5-min Rain = 0
KCR1 250001Z 04009KT 14/M03 A3012 RMK A01 T01441028  RH  030%=      5-min Rain = 0
KCR1 250002Z 04009KT 14/M03 A3012 RMK A01 T01441027  RH  031%=      5-min Rain = 0
KCR1 250003Z 04009KT 14/M03 A3012 RMK A01 T01431026  RH  031%=      5-min Rain = 0
KCR1 250004Z 05008KT 14/M03 A3012 RMK A01 T01421027  RH  031%=      5-min Rain = 0
KCR1 250005Z 05008KT 14/M03 A3012 RMK A01 T01421026  RH  031%=      5-min Rain = 0
KCR1 250006Z 05009KT 14/M03 A3012 RMK A01 T01411028  RH  031%=      5-min Rain = 0
KCR1 250007Z 05008KT 14/M03 A3012 RMK A01 T01411028  RH  031%=      5-min Rain = 0
KCR1 250008Z 05008KT 14/M03 A3012 RMK A01 T01401026  RH  032%=      5-min Rain = 0
KCR1 250009Z 05009KT 14/M03 A3012 RMK A01 T01391026  RH  032%=      5-min Rain = 0
KCR1 250010Z 05009KT 14/M03 A3012 RMK A01 T01391027  RH  032%=      5-min Rain = 0
KCR1 250011Z 05009KT 14/M03 A3012 RMK A01 T01381027  RH  032%=      5-min Rain = 0
KCR1 250012Z 05008KT 14/M03 A3012 RMK A01 T01371027  RH  032%=      5-min Rain = 0
KCR1 250013Z 04009KT 14/M03 A3012 RMK A01 T01361027  RH  032%=      5-min Rain = 0
KCR1 250014Z 04009KT 14/M03 A3013 RMK A01 T01361026  RH  032%=      5-min Rain = 0
KCR1 250015Z 04009KT 14/M03 A3013 RMK A01 T01351027  RH  032%=      5-min Rain = 0
KCR1 250016Z 04009KT 14/M03 A3013 RMK A01 T01351026  RH  033%=      5-min Rain = 0
KCR1 250017Z 04010KT 13/M03 A3013 RMK A01 T01341026  RH  033%=      5-min Rain = 0
KCR1 250018Z 04010KT 13/M03 A3013 RMK A01 T01331028  RH  033%=      5-min Rain = 0
KCR1 250019Z 03009KT 13/M03 A3013 RMK A01 T01331028  RH  033%=      5-min Rain = 0
KCR1 250020Z 03009KT 13/M03 A3013 RMK A01 T01321028  RH  033%=      5-min Rain = 0
KCR1 250021Z 04009KT 13/M03 A3013 RMK A01 T01321029  RH  033%=      5-min Rain = 0
KCR1 250022Z 04009KT 13/M03 A3013 RMK A01 T01311028  RH  033%=      5-min Rain = 0
KCR1 250023Z 04008KT 13/M03 A3013 RMK A01 T01301029  RH  033%=      5-min Rain = 0
KCR1 250024Z 04009KT 13/M03 A3013 RMK A01 T01291027  RH  034%=      5-min Rain = 0
KCR1 250025Z 04009KT 13/M03 A3013 RMK A01 T01281027  RH  034%=      5-min Rain = 0
KCR1 250026Z 04009KT 13/M03 A3013 RMK A01 T01271028  RH  034%=      5-min Rain = 0
KCR1 250027Z 04008KT 13/M03 A3013 RMK A01 T01261027  RH  034%=      5-min Rain = 0
KCR1 250028Z 04008KT 12/M03 A3013 RMK A01 T01241027  RH  035%=      5-min Rain = 0
KCR1 250029Z 04009KT 12/M03 A3013 RMK A01 T01241027  RH  035%=      5-min Rain = 0
KCR1 250030Z 04009KT 12/M03 A3014 RMK A01 T01241027  RH  035%=      5-min Rain = 0
KCR1 250031Z 04009KT 12/M03 A3014 RMK A01 T01231027  RH  035%=      5-min Rain = 0
KCR1 250032Z 04009KT 12/M03 A3014 RMK A01 T01221027  RH  035%=      5-min Rain = 0
KCR1 250033Z 04009KT 12/M03 A3014 RMK A01 T01221026  RH  036%=      5-min Rain = 0
KCR1 250034Z 04009KT 12/M03 A3014 RMK A01 T01211026  RH  036%=      5-min Rain = 0
KCR1 250035Z 04009KT 12/M03 A3014 RMK A01 T01201026  RH  036%=      5-min Rain = 0
KCR1 250036Z 04009KT 12/M03 A3014 RMK A01 T01191026  RH  036%=      5-min Rain = 0
KCR1 250037Z 03009KT 12/M03 A3014 RMK A01 T01181025  RH  037%=      5-min Rain = 0
KCR1 250038Z 03009KT 12/M03 A3014 RMK A01 T01161026  RH  037%=      5-min Rain = 0
KCR1 250039Z 03008KT 12/M03 A3014 RMK A01 T01151025  RH  037%=      5-min Rain = 0
KCR1 250040Z 03008KT 11/M03 A3014 RMK A01 T01141025  RH  038%=      5-min Rain = 0
KCR1 250041Z 03008KT 11/M03 A3014 RMK A01 T01131026  RH  038%=      5-min Rain = 0
KCR1 250042Z 03008KT 11/M03 A3014 RMK A01 T01131025  RH  038%=      5-min Rain = 0
KCR1 250043Z 03008KT 11/M03 A3014 RMK A01 T01121025  RH  038%=      5-min Rain = 0
KCR1 250044Z 03008KT 11/M03 A3014 RMK A01 T01121025  RH  038%=      5-min Rain = 0
KCR1 250045Z 03008KT 11/M03 A3014 RMK A01 T01111025  RH  039%=      5-min Rain = 0
KCR1 250046Z 03008KT 11/M03 A3014 RMK A01 T01111025  RH  039%=      5-min Rain = 0
KCR1 250047Z 03008KT 11/M03 A3014 RMK A01 T01101025  RH  039%=      5-min Rain = 0
KCR1 250048Z 03008KT 11/M03 A3014 RMK A01 T01091025  RH  039%=      5-min Rain = 0
KCR1 250049Z 03008KT 11/M02 A3015 RMK A01 T01081024  RH  040%=      5-min Rain = 0
KCR1 250050Z 03008KT 11/M02 A3015 RMK A01 T01071024  RH  040%=      5-min Rain = 0
KCR1 250051Z 03008KT 11/M02 A3015 RMK A01 T01061024  RH  040%=      5-min Rain = 0
KCR1 250052Z 03008KT 11/M02 A3015 RMK A01 T01061024  RH  040%=      5-min Rain = 0
KCR1 250053Z 03008KT 11/M02 A3015 RMK A01 T01061024  RH  040%=      5-min Rain = 0
KCR1 250054Z 03008KT 11/M02 A3015 RMK A01 T01051024  RH  040%=      5-min Rain = 0
KCR1 250055Z 03008KT 10/M02 A3015 RMK A01 T01041024  RH  041%=      5-min Rain = 0
KCR1 250056Z 03008KT 10/M02 A3015 RMK A01 T01031024  RH  041%=      5-min Rain = 0
KCR1 250057Z 03008KT 10/M02 A3015 RMK A01 T01031023  RH  041%=      5-min Rain = 0
KCR1 250058Z 03008KT 10/M02 A3015 RMK A01 T01021023  RH  041%=      5-min Rain = 0
KCR1 250059Z 03008KT 10/M02 A3015 RMK A01 T01011022  RH  042%=      5-min Rain = 0
KCR1 250100Z 03009KT 10/M02 A3015 RMK A01 T01011023  RH  042%=      5-min Rain = 0
KCR1 250101Z 03009KT 10/M02 A3015 RMK A01 T01001023  RH  042%=      5-min Rain = 0
KCR1 250102Z 03009KT 10/M02 A3015 RMK A01 T01011023  RH  042%=      5-min Rain = 0
KCR1 250103Z 03009KT 10/M02 A3015 RMK A01 T01001023  RH  042%=      5-min Rain = 0
KCR1 250104Z 03009KT 10/M02 A3015 RMK A01 T01001023  RH  042%=      5-min Rain = 0
KCR1 250105Z 03009KT 10/M02 A3015 RMK A01 T00991024  RH  042%=      5-min Rain = 0
KCR1 250106Z 03009KT 10/M03 A3015 RMK A01 T00991025  RH  042%=      5-min Rain = 0
KCR1 250107Z 03009KT 10/M03 A3015 RMK A01 T01001025  RH  042%=      5-min Rain = 0
KCR1 250108Z 03008KT 10/M02 A3015 RMK A01 T01001024  RH  042%=      5-min Rain = 0
KCR1 250109Z 03009KT 10/M02 A3016 RMK A01 T01001024  RH  042%=      5-min Rain = 0
KCR1 250110Z 03009KT 10/M02 A3016 RMK A01 T00991024  RH  042%=      5-min Rain = 0
KCR1 250111Z 03009KT 10/M02 A3016 RMK A01 T00991024  RH  042%=      5-min Rain = 0
KCR1 250112Z 03009KT 10/M02 A3016 RMK A01 T00991024  RH  042%=      5-min Rain = 0
KCR1 250113Z 03009KT 10/M02 A3016 RMK A01 T00981024  RH  042%=      5-min Rain = 0
KCR1 250114Z 03009KT 10/M02 A3016 RMK A01 T00981024  RH  042%=      5-min Rain = 0
KCR1 250115Z 03009KT 10/M02 A3016 RMK A01 T00981024  RH  042%=      5-min Rain = 0
KCR1 250116Z 03009KT 10/M02 A3016 RMK A01 T00981024  RH  042%=      5-min Rain = 0
KCR1 250117Z 03008KT 10/M02 A3016 RMK A01 T00971024  RH  043%=      5-min Rain = 0
KCR1 250118Z 03008KT 10/M03 A3016 RMK A01 T00971025  RH  042%=      5-min Rain = 0
KCR1 250119Z 03008KT 10/M02 A3017 RMK A01 T00971024  RH  043%=      5-min Rain = 0
KCR1 250120Z 03008KT 10/M02 A3017 RMK A01 T00961023  RH  043%=      5-min Rain = 0
KCR1 250121Z 03008KT 10/M02 A3017 RMK A01 T00951023  RH  044%=      5-min Rain = 0
KCR1 250122Z 03008KT 09/M02 A3017 RMK A01 T00941023  RH  044%=      5-min Rain = 0
KCR1 250123Z 03008KT 09/M02 A3017 RMK A01 T00931022  RH  044%=      5-min Rain = 0
KCR1 250124Z 03007KT 09/M02 A3017 RMK A01 T00931022  RH  045%=      5-min Rain = 0
KCR1 250125Z 03007KT 09/M02 A3017 RMK A01 T00921021  RH  045%=      5-min Rain = 0
KCR1 250126Z 03007KT 09/M02 A3017 RMK A01 T00911022  RH  045%=      5-min Rain = 0
KCR1 250127Z 03008KT 09/M02 A3017 RMK A01 T00901022  RH  045%=      5-min Rain = 0
KCR1 250128Z 03008KT 09/M02 A3017 RMK A01 T00901022  RH  045%=      5-min Rain = 0
KCR1 250129Z 03008KT 09/M02 A3017 RMK A01 T00891022  RH  046%=      5-min Rain = 0
KCR1 250130Z 03007KT 09/M02 A3017 RMK A01 T00891022  RH  046%=      5-min Rain = 0
KCR1 250131Z 03008KT 09/M02 A3017 RMK A01 T00891022  RH  046%=      5-min Rain = 0
KCR1 250132Z 03008KT 09/M02 A3017 RMK A01 T00891022  RH  046%=      5-min Rain = 0
KCR1 250133Z 03008KT 09/M02 A3017 RMK A01 T00881022  RH  046%=      5-min Rain = 0
KCR1 250134Z 04008KT 09/M02 A3017 RMK A01 T00881022  RH  046%=      5-min Rain = 0
KCR1 250135Z 04008KT 09/M02 A3017 RMK A01 T00881022  RH  046%=      5-min Rain = 0
KCR1 250136Z 04008KT 09/M02 A3017 RMK A01 T00881022  RH  046%=      5-min Rain = 0
KCR1 250137Z 04008KT 09/M02 A3017 RMK A01 T00881022  RH  046%=      5-min Rain = 0
KCR1 250138Z 04008KT 09/M02 A3017 RMK A01 T00871021  RH  046%=      5-min Rain = 0
KCR1 250139Z 04007KT 09/M02 A3017 RMK A01 T00871021  RH  047%=      5-min Rain = 0
KCR1 250140Z 04007KT 09/M02 A3017 RMK A01 T00861021  RH  047%=      5-min Rain = 0
KCR1 250141Z 04007KT 09/M02 A3017 RMK A01 T00851021  RH  047%=      5-min Rain = 0
KCR1 250142Z 04007KT 08/M02 A3017 RMK A01 T00841021  RH  048%=      5-min Rain = 0
KCR1 250143Z 04007KT 08/M02 A3017 RMK A01 T00831020  RH  048%=      5-min Rain = 0
KCR1 250144Z 04007KT 08/M02 A3017 RMK A01 T00821020  RH  048%=      5-min Rain = 0
KCR1 250145Z 04007KT 08/M02 A3017 RMK A01 T00811020  RH  049%=      5-min Rain = 0
KCR1 250146Z 04007KT 08/M02 A3017 RMK A01 T00811020  RH  049%=      5-min Rain = 0
KCR1 250147Z 04007KT 08/M02 A3017 RMK A01 T00801020  RH  049%=      5-min Rain = 0
KCR1 250148Z 04007KT 08/M02 A3017 RMK A01 T00801020  RH  049%=      5-min Rain = 0
KCR1 250149Z 04006KT 08/M02 A3018 RMK A01 T00791020  RH  050%=      5-min Rain = 0
KCR1 250150Z 04006KT 08/M02 A3018 RMK A01 T00791020  RH  050%=      5-min Rain = 0
KCR1 250151Z 04007KT 08/M02 A3018 RMK A01 T00781020  RH  050%=      5-min Rain = 0
KCR1 250152Z 05007KT 08/M02 A3018 RMK A01 T00771019  RH  050%=      5-min Rain = 0
KCR1 250153Z 05006KT 08/M02 A3018 RMK A01 T00761019  RH  051%=      5-min Rain = 0
KCR1 250154Z 05006KT 08/M02 A3018 RMK A01 T00751019  RH  052%=      5-min Rain = 0
KCR1 250155Z 05006KT 07/M02 A3018 RMK A01 T00741019  RH  052%=      5-min Rain = 0
KCR1 250156Z 04006KT 07/M02 A3018 RMK A01 T00731019  RH  052%=      5-min Rain = 0
KCR1 250157Z 04006KT 07/M02 A3018 RMK A01 T00731018  RH  052%=      5-min Rain = 0
KCR1 250158Z 04006KT 07/M02 A3018 RMK A01 T00721018  RH  053%=      5-min Rain = 0
KCR1 250159Z 04006KT 07/M02 A3018 RMK A01 T00721019  RH  053%=      5-min Rain = 0
KCR1 250200Z 04006KT 07/M02 A3018 RMK A01 T00711019  RH  053%=      5-min Rain = 0
KCR1 250201Z 04006KT 07/M02 A3018 RMK A01 T00711019  RH  052%=      5-min Rain = 0
KCR1 250202Z 04006KT 07/M02 A3018 RMK A01 T00711019  RH  053%=      5-min Rain = 0
KCR1 250203Z 05007KT 07/M02 A3018 RMK A01 T00711021  RH  052%=      5-min Rain = 0
KCR1 250204Z 04006KT 07/M02 A3018 RMK A01 T00711021  RH  052%=      5-min Rain = 0
KCR1 250205Z 04006KT 07/M02 A3018 RMK A01 T00701020  RH  052%=      5-min Rain = 0
KCR1 250206Z 04007KT 07/M02 A3018 RMK A01 T00701022  RH  052%=      5-min Rain = 0
KCR1 250207Z 04007KT 07/M02 A3019 RMK A01 T00721024  RH  051%=      5-min Rain = 0
KCR1 250208Z 04006KT 07/M02 A3019 RMK A01 T00741023  RH  050%=      5-min Rain = 0
KCR1 250209Z 04007KT 07/M02 A3019 RMK A01 T00741022  RH  050%=      5-min Rain = 0
KCR1 250210Z 04007KT 07/M02 A3019 RMK A01 T00731021  RH  051%=      5-min Rain = 0
KCR1 250211Z 04007KT 07/M02 A3019 RMK A01 T00721021  RH  052%=      5-min Rain = 0
KCR1 250212Z 04007KT 07/M02 A3019 RMK A01 T00711020  RH  052%=      5-min Rain = 0
KCR1 250213Z 04007KT 07/M02 A3019 RMK A01 T00701020  RH  053%=      5-min Rain = 0
KCR1 250214Z 04007KT 07/M02 A3019 RMK A01 T00701021  RH  052%=      5-min Rain = 0
KCR1 250215Z 04007KT 07/M02 A3019 RMK A01 T00711020  RH  053%=      5-min Rain = 0
KCR1 250216Z 04008KT 07/M02 A3019 RMK A01 T00711021  RH  052%=      5-min Rain = 0
KCR1 250217Z 05008KT 07/M02 A3019 RMK A01 T00721021  RH  051%=      5-min Rain = 0
KCR1 250218Z 04008KT 07/M02 A3019 RMK A01 T00731022  RH  051%=      5-min Rain = 0
KCR1 250219Z 04008KT 07/M02 A3019 RMK A01 T00741022  RH  050%=      5-min Rain = 0
KCR1 250220Z 04008KT 08/M02 A302 RMK A01 T00751022  RH  050%=      5-min Rain = 0
KCR1 250221Z 04008KT 08/M02 A302 RMK A01 T00761022  RH  050%=      5-min Rain = 0
KCR1 250222Z 04008KT 08/M02 A302 RMK A01 T00761022  RH  050%=      5-min Rain = 0
KCR1 250223Z 04008KT 08/M02 A302 RMK A01 T00771022  RH  049%=      5-min Rain = 0
KCR1 250224Z 04008KT 08/M02 A302 RMK A01 T00771021  RH  050%=      5-min Rain = 0
KCR1 250225Z 04008KT 08/M02 A302 RMK A01 T00771021  RH  050%=      5-min Rain = 0
KCR1 250226Z 04008KT 08/M02 A302 RMK A01 T00761022  RH  050%=      5-min Rain = 0
KCR1 250227Z 04008KT 08/M02 A302 RMK A01 T00761021  RH  050%=      5-min Rain = 0
KCR1 250228Z 03008KT 08/M02 A302 RMK A01 T00751020  RH  051%=      5-min Rain = 0
KCR1 250229Z 03008KT 07/M02 A302 RMK A01 T00741020  RH  051%=      5-min Rain = 0
KCR1 250230Z 03008KT 07/M02 A302 RMK A01 T00731020  RH  052%=      5-min Rain = 0
KCR1 250231Z 04008KT 07/M02 A302 RMK A01 T00721019  RH  052%=      5-min Rain = 0
KCR1 250232Z 04008KT 07/M02 A302 RMK A01 T00711020  RH  053%=      5-min Rain = 0
KCR1 250233Z 04008KT 07/M02 A302 RMK A01 T00701020  RH  053%=      5-min Rain = 0
KCR1 250234Z 04008KT 07/M02 A302 RMK A01 T00701021  RH  052%=      5-min Rain = 0
KCR1 250235Z 04008KT 07/M02 A302 RMK A01 T00701022  RH  052%=      5-min Rain = 0
KCR1 250236Z 04008KT 07/M02 A302 RMK A01 T00701022  RH  052%=      5-min Rain = 0
KCR1 250237Z 04008KT 07/M02 A302 RMK A01 T00711021  RH  052%=      5-min Rain = 0
KCR1 250238Z 04008KT 07/M02 A302 RMK A01 T00701021  RH  052%=      5-min Rain = 0
KCR1 250239Z 04008KT 07/M02 A302 RMK A01 T00701021  RH  052%=      5-min Rain = 0
KCR1 250240Z 04008KT 07/M02 A302 RMK A01 T00691021  RH  052%=      5-min Rain = 0
KCR1 250241Z 04008KT 07/M02 A3021 RMK A01 T00691022  RH  052%=      5-min Rain = 0
KCR1 250242Z 04008KT 07/M02 A3021 RMK A01 T00691023  RH  052%=      5-min Rain = 0
KCR1 250243Z 04007KT 07/M02 A3021 RMK A01 T00691022  RH  052%=      5-min Rain = 0
KCR1 250244Z 04007KT 07/M02 A3021 RMK A01 T00691022  RH  052%=      5-min Rain = 0
KCR1 250245Z 03007KT 07/M02 A3021 RMK A01 T00681022  RH  053%=      5-min Rain = 0
KCR1 250246Z 04007KT 07/M02 A3021 RMK A01 T00671021  RH  053%=      5-min Rain = 0
KCR1 250247Z 04007KT 07/M02 A3021 RMK A01 T00671022  RH  053%=      5-min Rain = 0
KCR1 250248Z 03007KT 07/M02 A3021 RMK A01 T00661022  RH  053%=      5-min Rain = 0
KCR1 250249Z 03007KT 07/M02 A3021 RMK A01 T00661021  RH  054%=      5-min Rain = 0
KCR1 250250Z 03008KT 07/M02 A3021 RMK A01 T00651020  RH  055%=      5-min Rain = 0
KCR1 250251Z 03008KT 06/M02 A3022 RMK A01 T00641021  RH  055%=      5-min Rain = 0
KCR1 250252Z 03008KT 06/M02 A3022 RMK A01 T00631021  RH  055%=      5-min Rain = 0
KCR1 250253Z 02008KT 06/M02 A3022 RMK A01 T00631021  RH  055%=      5-min Rain = 0
KCR1 250254Z 02008KT 06/M02 A3022 RMK A01 T00631020  RH  055%=      5-min Rain = 0
KCR1 250255Z 03008KT 06/M02 A3022 RMK A01 T00611021  RH  056%=      5-min Rain = 0
KCR1 250256Z 03008KT 06/M02 A3022 RMK A01 T00611022  RH  055%=      5-min Rain = 0
KCR1 250257Z 03008KT 06/M02 A3022 RMK A01 T00621023  RH  054%=      5-min Rain = 0
KCR1 250258Z 03008KT 06/M02 A3022 RMK A01 T00641024  RH  053%=      5-min Rain = 0
KCR1 250259Z 04009KT 07/M03 A3022 RMK A01 T00671025  RH  052%=      5-min Rain = 0
KCR1 250300Z 03008KT 07/M03 A3022 RMK A01 T00691025  RH  051%=      5-min Rain = 0
KCR1 250301Z 03009KT 07/M03 A3022 RMK A01 T00711026  RH  050%=      5-min Rain = 0
KCR1 250302Z 03009KT 07/M03 A3022 RMK A01 T00721026  RH  050%=      5-min Rain = 0
KCR1 250303Z 03009KT 07/M03 A3022 RMK A01 T00731027  RH  049%=      5-min Rain = 0
KCR1 250304Z 03009KT 07/M03 A3022 RMK A01 T00731028  RH  049%=      5-min Rain = 0
KCR1 250305Z 03010KT 07/M03 A3022 RMK A01 T00741028  RH  049%=      5-min Rain = 0
KCR1 250306Z 03010KT 07/M03 A3022 RMK A01 T00741028  RH  048%=      5-min Rain = 0
KCR1 250307Z 03010KT 08/M03 A3022 RMK A01 T00751029  RH  048%=      5-min Rain = 0
KCR1 250308Z 03010KT 08/M03 A3022 RMK A01 T00751030  RH  047%=      5-min Rain = 0
KCR1 250309Z 03010KT 08/M03 A3022 RMK A01 T00761029  RH  047%=      5-min Rain = 0
KCR1 250310Z 03010KT 08/M03 A3022 RMK A01 T00751029  RH  048%=      5-min Rain = 0
KCR1 250311Z 03010KT 08/M03 A3022 RMK A01 T00751030  RH  047%=      5-min Rain = 0
KCR1 250312Z 03010KT 08/M03 A3022 RMK A01 T00751030  RH  047%=      5-min Rain = 0
KCR1 250313Z 03010KT 08/M03 A3023 RMK A01 T00751030  RH  047%=      5-min Rain = 0
KCR1 250314Z 03011KT 08/M03 A3023 RMK A01 T00751030  RH  048%=      5-min Rain = 0
KCR1 250315Z 03010KT 07/M03 A3023 RMK A01 T00741030  RH  048%=      5-min Rain = 0
KCR1 250316Z 03010KT 07/M03 A3023 RMK A01 T00741030  RH  048%=      5-min Rain = 0
KCR1 250317Z 03010KT 07/M03 A3023 RMK A01 T00731029  RH  048%=      5-min Rain = 0
KCR1 250318Z 03010KT 07/M03 A3023 RMK A01 T00731029  RH  048%=      5-min Rain = 0
KCR1 250319Z 03010KT 07/M03 A3023 RMK A01 T00721029  RH  049%=      5-min Rain = 0
KCR1 250320Z 03010KT 07/M03 A3023 RMK A01 T00721028  RH  049%=      5-min Rain = 0
KCR1 250321Z 03010KT 07/M03 A3023 RMK A01 T00711028  RH  049%=      5-min Rain = 0
KCR1 250322Z 03010KT 07/M03 A3023 RMK A01 T00711028  RH  050%=      5-min Rain = 0
KCR1 250323Z 03009KT 07/M03 A3023 RMK A01 T00701027  RH  050%=      5-min Rain = 0
KCR1 250324Z 03009KT 07/M03 A3023 RMK A01 T00701028  RH  050%=      5-min Rain = 0
KCR1 250325Z 03009KT 07/M03 A3023 RMK A01 T00701028  RH  050%=      5-min Rain = 0
KCR1 250326Z 02009KT 07/M03 A3023 RMK A01 T00691028  RH  050%=      5-min Rain = 0
KCR1 250327Z 02009KT 07/M03 A3023 RMK A01 T00691028  RH  050%=      5-min Rain = 0
KCR1 250328Z 03009KT 07/M03 A3023 RMK A01 T00691028  RH  050%=      5-min Rain = 0
KCR1 250329Z 03009KT 07/M03 A3023 RMK A01 T00691028  RH  050%=      5-min Rain = 0
KCR1 250330Z 03009KT 07/M03 A3023 RMK A01 T00691028  RH  050%=      5-min Rain = 0
KCR1 250331Z 02009KT 07/M03 A3023 RMK A01 T00691028  RH  050%=      5-min Rain = 0
KCR1 250332Z 02009KT 07/M03 A3023 RMK A01 T00681027  RH  050%=      5-min Rain = 0
KCR1 250333Z 02009KT 07/M03 A3023 RMK A01 T00681027  RH  051%=      5-min Rain = 0
KCR1 250334Z 02008KT 07/M03 A3023 RMK A01 T00681028  RH  051%=      5-min Rain = 0
KCR1 250335Z 02008KT 07/M03 A3024 RMK A01 T00681028  RH  051%=      5-min Rain = 0
KCR1 250336Z 02007KT 07/M03 A3024 RMK A01 T00671027  RH  051%=      5-min Rain = 0
KCR1 250337Z 02008KT 07/M03 A3024 RMK A01 T00661027  RH  051%=      5-min Rain = 0
KCR1 250338Z 01007KT 07/M03 A3024 RMK A01 T00651027  RH  052%=      5-min Rain = 0
KCR1 250339Z 01007KT 06/M03 A3023 RMK A01 T00641028  RH  052%=      5-min Rain = 0
KCR1 250340Z 02007KT 06/M03 A3023 RMK A01 T00641028  RH  052%=      5-min Rain = 0
KCR1 250341Z 02008KT 06/M03 A3023 RMK A01 T00641028  RH  052%=      5-min Rain = 0
KCR1 250342Z 02008KT 06/M03 A3023 RMK A01 T00631028  RH  052%=      5-min Rain = 0
KCR1 250343Z 02008KT 06/M03 A3023 RMK A01 T00621028  RH  052%=      5-min Rain = 0
KCR1 250344Z 02008KT 06/M03 A3023 RMK A01 T00621028  RH  052%=      5-min Rain = 0
KCR1 250345Z 02007KT 06/M03 A3023 RMK A01 T00621028  RH  052%=      5-min Rain = 0
KCR1 250346Z 02007KT 06/M03 A3024 RMK A01 T00611028  RH  053%=      5-min Rain = 0
KCR1 250347Z 02007KT 06/M03 A3024 RMK A01 T00601028  RH  053%=      5-min Rain = 0
KCR1 250348Z 02008KT 06/M03 A3024 RMK A01 T00601028  RH  053%=      5-min Rain = 0
KCR1 250349Z 02008KT 06/M03 A3024 RMK A01 T00591028  RH  053%=      5-min Rain = 0
KCR1 250350Z 02008KT 06/M03 A3024 RMK A01 T00591029  RH  053%=      5-min Rain = 0
KCR1 250351Z 02007KT 06/M03 A3024 RMK A01 T00591029  RH  053%=      5-min Rain = 0
KCR1 250352Z 03007KT 06/M03 A3024 RMK A01 T00591028  RH  053%=      5-min Rain = 0
KCR1 250353Z 03007KT 06/M03 A3024 RMK A01 T00591028  RH  054%=      5-min Rain = 0
KCR1 250354Z 03007KT 06/M03 A3024 RMK A01 T00591028  RH  054%=      5-min Rain = 0
KCR1 250355Z 03007KT 06/M03 A3024 RMK A01 T00581028  RH  054%=      5-min Rain = 0
KCR1 250356Z 03007KT 06/M03 A3024 RMK A01 T00581028  RH  054%=      5-min Rain = 0
KCR1 250357Z 03008KT 06/M03 A3024 RMK A01 T00581029  RH  054%=      5-min Rain = 0
KCR1 250358Z 03008KT 06/M03 A3024 RMK A01 T00591029  RH  053%=      5-min Rain = 0
KCR1 250359Z 04008KT 06/M03 A3024 RMK A01 T00601029  RH  053%=      5-min Rain = 0
KCR1 250400Z 04008KT 06/M03 A3024 RMK A01 T00601029  RH  053%=      5-min Rain = 0
KCR1 250401Z 04008KT 06/M03 A3024 RMK A01 T00591028  RH  053%=      5-min Rain = 0
KCR1 250402Z 04008KT 06/M03 A3024 RMK A01 T00581027  RH  054%=      5-min Rain = 0
KCR1 250403Z 04008KT 06/M03 A3024 RMK A01 T00571027  RH  055%=      5-min Rain = 0
KCR1 250404Z 04008KT 06/M03 A3024 RMK A01 T00561027  RH  055%=      5-min Rain = 0
KCR1 250405Z 04008KT 06/M03 A3024 RMK A01 T00551027  RH  056%=      5-min Rain = 0
KCR1 250406Z 04008KT 05/M03 A3024 RMK A01 T00541027  RH  056%=      5-min Rain = 0
KCR1 250407Z 04008KT 05/M03 A3024 RMK A01 T00541027  RH  056%=      5-min Rain = 0
KCR1 250408Z 04008KT 05/M03 A3024 RMK A01 T00541027  RH  056%=      5-min Rain = 0
KCR1 250409Z 04008KT 05/M03 A3024 RMK A01 T00541026  RH  056%=      5-min Rain = 0
KCR1 250410Z 04008KT 05/M03 A3024 RMK A01 T00531027  RH  057%=      5-min Rain = 0
KCR1 250411Z 03008KT 05/M03 A3024 RMK A01 T00521026  RH  057%=      5-min Rain = 0
KCR1 250412Z 03007KT 05/M03 A3025 RMK A01 T00521027  RH  057%=      5-min Rain = 0
KCR1 250413Z 04008KT 05/M03 A3025 RMK A01 T00511026  RH  057%=      5-min Rain = 0
KCR1 250414Z 03008KT 05/M03 A3025 RMK A01 T00511026  RH  057%=      5-min Rain = 0
KCR1 250415Z 03007KT 05/M03 A3025 RMK A01 T00511026  RH  057%=      5-min Rain = 0
KCR1 250416Z 03007KT 05/M03 A3025 RMK A01 T00511026  RH  058%=      5-min Rain = 0
KCR1 250417Z 03008KT 05/M03 A3025 RMK A01 T00511027  RH  057%=      5-min Rain = 0
KCR1 250418Z 03008KT 05/M03 A3025 RMK A01 T00511027  RH  057%=      5-min Rain = 0
KCR1 250419Z 03008KT 05/M03 A3025 RMK A01 T00511027  RH  057%=      5-min Rain = 0
KCR1 250420Z 03008KT 05/M03 A3025 RMK A01 T00511027  RH  057%=      5-min Rain = 0
KCR1 250421Z 03008KT 05/M03 A3025 RMK A01 T00511027  RH  057%=      5-min Rain = 0
KCR1 250422Z 03007KT 05/M03 A3025 RMK A01 T00511027  RH  057%=      5-min Rain = 0
KCR1 250423Z 03007KT 05/M03 A3025 RMK A01 T00501027  RH  057%=      5-min Rain = 0
KCR1 250424Z 03007KT 05/M03 A3025 RMK A01 T00501027  RH  057%=      5-min Rain = 0
KCR1 250425Z 03007KT 05/M03 A3025 RMK A01 T00491027  RH  058%=      5-min Rain = 0
KCR1 250426Z 02007KT 05/M03 A3026 RMK A01 T00491027  RH  058%=      5-min Rain = 0
KCR1 250427Z 02007KT 05/M03 A3026 RMK A01 T00491027  RH  058%=      5-min Rain = 0
KCR1 250428Z 02007KT 05/M03 A3026 RMK A01 T00481027  RH  058%=      5-min Rain = 0
KCR1 250429Z 01007KT 05/M03 A3026 RMK A01 T00481027  RH  058%=      5-min Rain = 0
KCR1 250430Z 01007KT 05/M03 A3026 RMK A01 T00481027  RH  058%=      5-min Rain = 0
KCR1 250431Z 00007KT 05/M03 A3026 RMK A01 T00471026  RH  059%=      5-min Rain = 0
KCR1 250432Z 00007KT 05/M03 A3026 RMK A01 T00461027  RH  059%=      5-min Rain = 0
KCR1 250433Z 00007KT 05/M03 A3026 RMK A01 T00451028  RH  059%=      5-min Rain = 0
KCR1 250434Z 01007KT 05/M03 A3026 RMK A01 T00451029  RH  059%=      5-min Rain = 0
KCR1 250435Z 01007KT 05/M03 A3026 RMK A01 T00451029  RH  058%=      5-min Rain = 0
KCR1 250436Z 01007KT 05/M03 A3026 RMK A01 T00461030  RH  058%=      5-min Rain = 0
KCR1 250437Z 01007KT 05/M03 A3026 RMK A01 T00461030  RH  058%=      5-min Rain = 0
KCR1 250438Z 01007KT 05/M03 A3026 RMK A01 T00461030  RH  058%=      5-min Rain = 0
KCR1 250439Z 01007KT 05/M03 A3026 RMK A01 T00451030  RH  058%=      5-min Rain = 0
KCR1 250440Z 01007KT 04/M03 A3026 RMK A01 T00441030  RH  059%=      5-min Rain = 0
KCR1 250441Z 01007KT 04/M03 A3026 RMK A01 T00441029  RH  059%=      5-min Rain = 0
KCR1 250442Z 01007KT 04/M03 A3026 RMK A01 T00431029  RH  059%=      5-min Rain = 0
KCR1 250443Z 01007KT 04/M03 A3026 RMK A01 T00431029  RH  059%=      5-min Rain = 0
KCR1 250444Z 01007KT 04/M03 A3026 RMK A01 T00431030  RH  059%=      5-min Rain = 0
KCR1 250445Z 01007KT 04/M03 A3026 RMK A01 T00441030  RH  059%=      5-min Rain = 0
KCR1 250446Z 02007KT 04/M03 A3026 RMK A01 T00441030  RH  059%=      5-min Rain = 0
KCR1 250447Z 02008KT 04/M03 A3026 RMK A01 T00441029  RH  059%=      5-min Rain = 0
KCR1 250448Z 02007KT 04/M03 A3026 RMK A01 T00431029  RH  059%=      5-min Rain = 0
KCR1 250449Z 02008KT 04/M03 A3026 RMK A01 T00431029  RH  059%=      5-min Rain = 0
KCR1 250450Z 02008KT 04/M03 A3025 RMK A01 T00431029  RH  060%=      5-min Rain = 0
KCR1 250451Z 03008KT 04/M03 A3025 RMK A01 T00421029  RH  060%=      5-min Rain = 0
KCR1 250452Z 03008KT 04/M03 A3025 RMK A01 T00421028  RH  060%=      5-min Rain = 0
KCR1 250453Z 03008KT 04/M03 A3025 RMK A01 T00421028  RH  060%=      5-min Rain = 0
KCR1 250454Z 02008KT 04/M03 A3025 RMK A01 T00421028  RH  060%=      5-min Rain = 0
KCR1 250455Z 02008KT 04/M03 A3025 RMK A01 T00421028  RH  061%=      5-min Rain = 0
KCR1 250456Z 02008KT 04/M03 A3025 RMK A01 T00411028  RH  061%=      5-min Rain = 0
KCR1 250457Z 02008KT 04/M03 A3025 RMK A01 T00411028  RH  061%=      5-min Rain = 0
KCR1 250458Z 02008KT 04/M03 A3025 RMK A01 T00411028  RH  061%=      5-min Rain = 0
KCR1 250459Z 02008KT 04/M03 A3025 RMK A01 T00411028  RH  061%=      5-min Rain = 0
KCR1 250500Z 02008KT 04/M03 A3025 RMK A01 T00411029  RH  060%=      5-min Rain = 0
KCR1 250501Z 02008KT 04/M03 A3025 RMK A01 T00431029  RH  060%=      5-min Rain = 0
KCR1 250502Z 02008KT 04/M03 A3025 RMK A01 T00431029  RH  059%=      5-min Rain = 0
KCR1 250503Z 02008KT 04/M03 A3025 RMK A01 T00441029  RH  059%=      5-min Rain = 0
KCR1 250504Z 02008KT 04/M03 A3025 RMK A01 T00441028  RH  059%=      5-min Rain = 0
KCR1 250505Z 02008KT 04/M03 A3025 RMK A01 T00431028  RH  059%=      5-min Rain = 0
KCR1 250506Z 02008KT 04/M03 A3025 RMK A01 T00431028  RH  060%=      5-min Rain = 0
KCR1 250507Z 02008KT 04/M03 A3025 RMK A01 T00431029  RH  059%=      5-min Rain = 0
KCR1 250508Z 02008KT 04/M03 A3024 RMK A01 T00431029  RH  059%=      5-min Rain = 0
KCR1 250509Z 02008KT 04/M03 A3024 RMK A01 T00431029  RH  059%=      5-min Rain = 0
KCR1 250510Z 02008KT 04/M03 A3024 RMK A01 T00431029  RH  059%=      5-min Rain = 0
KCR1 250511Z 02008KT 04/M03 A3024 RMK A01 T00431029  RH  060%=      5-min Rain = 0
KCR1 250512Z 02008KT 04/M03 A3024 RMK A01 T00421029  RH  060%=      5-min Rain = 0
KCR1 250513Z 01008KT 04/M03 A3024 RMK A01 T00411029  RH  060%=      5-min Rain = 0
KCR1 250514Z 01008KT 04/M03 A3024 RMK A01 T00411029  RH  060%=      5-min Rain = 0
KCR1 250515Z 01008KT 04/M03 A3024 RMK A01 T00401029  RH  061%=      5-min Rain = 0
KCR1 250516Z 01008KT 04/M03 A3024 RMK A01 T00401029  RH  061%=      5-min Rain = 0
KCR1 250517Z 01008KT 04/M03 A3024 RMK A01 T00401028  RH  061%=      5-min Rain = 0
KCR1 250518Z 01008KT 04/M03 A3024 RMK A01 T00391029  RH  061%=      5-min Rain = 0
KCR1 250519Z 02008KT 04/M03 A3024 RMK A01 T00391029  RH  061%=      5-min Rain = 0
KCR1 250520Z 02008KT 04/M03 A3024 RMK A01 T00391029  RH  061%=      5-min Rain = 0
KCR1 250521Z 01008KT 04/M03 A3024 RMK A01 T00381029  RH  061%=      5-min Rain = 0
KCR1 250522Z 02008KT 04/M03 A3024 RMK A01 T00381029  RH  062%=      5-min Rain = 0
KCR1 250523Z 02008KT 04/M03 A3024 RMK A01 T00371029  RH  062%=      5-min Rain = 0
KCR1 250524Z 02007KT 04/M03 A3024 RMK A01 T00371029  RH  062%=      5-min Rain = 0
KCR1 250525Z 01007KT 04/M03 A3024 RMK A01 T00371029  RH  062%=      5-min Rain = 0
KCR1 250526Z 01008KT 04/M03 A3024 RMK A01 T00371028  RH  062%=      5-min Rain = 0
KCR1 250527Z 01008KT 04/M03 A3024 RMK A01 T00371029  RH  062%=      5-min Rain = 0
KCR1 250528Z 01008KT 04/M03 A3024 RMK A01 T00361029  RH  062%=      5-min Rain = 0
KCR1 250529Z 01008KT 04/M03 A3024 RMK A01 T00361028  RH  063%=      5-min Rain = 0
KCR1 250530Z 01007KT 04/M03 A3024 RMK A01 T00361028  RH  063%=      5-min Rain = 0
KCR1 250531Z 01008KT 04/M03 A3024 RMK A01 T00361028  RH  063%=      5-min Rain = 0
KCR1 250532Z 01007KT 04/M03 A3024 RMK A01 T00351028  RH  063%=      5-min Rain = 0
KCR1 250533Z 01008KT 04/M03 A3024 RMK A01 T00351028  RH  063%=      5-min Rain = 0
KCR1 250534Z 01008KT 04/M03 A3024 RMK A01 T00351028  RH  063%=      5-min Rain = 0
KCR1 250535Z 01008KT 04/M03 A3024 RMK A01 T00351029  RH  063%=      5-min Rain = 0
KCR1 250536Z 01008KT 04/M03 A3024 RMK A01 T00361029  RH  063%=      5-min Rain = 0
KCR1 250537Z 01008KT 04/M03 A3024 RMK A01 T00361028  RH  063%=      5-min Rain = 0
KCR1 250538Z 01008KT 04/M03 A3024 RMK A01 T00361028  RH  063%=      5-min Rain = 0
KCR1 250539Z 01008KT 04/M03 A3024 RMK A01 T00361028  RH  063%=      5-min Rain = 0
KCR1 250540Z 01008KT 04/M03 A3024 RMK A01 T00351028  RH  063%=      5-min Rain = 0
KCR1 250541Z 01008KT 04/M03 A3024 RMK A01 T00351029  RH  063%=      5-min Rain = 0
KCR1 250542Z 01008KT 04/M03 A3024 RMK A01 T00351029  RH  063%=      5-min Rain = 0
KCR1 250543Z 01008KT 04/M03 A3024 RMK A01 T00351029  RH  063%=      5-min Rain = 0
KCR1 250544Z 01008KT 04/M03 A3024 RMK A01 T00351029  RH  063%=      5-min Rain = 0
KCR1 250545Z 01008KT 04/M03 A3023 RMK A01 T00351029  RH  063%=      5-min Rain = 0
KCR1 250546Z 01008KT 03/M03 A3023 RMK A01 T00341029  RH  063%=      5-min Rain = 0
KCR1 250547Z 01008KT 03/M03 A3023 RMK A01 T00341029  RH  063%=      5-min Rain = 0
KCR1 250548Z 01008KT 03/M03 A3023 RMK A01 T00341029  RH  064%=      5-min Rain = 0
KCR1 250549Z 01008KT 03/M03 A3023 RMK A01 T00341029  RH  064%=      5-min Rain = 0
KCR1 250550Z 02008KT 03/M03 A3023 RMK A01 T00341029  RH  063%=      5-min Rain = 0
KCR1 250551Z 02007KT 03/M03 A3023 RMK A01 T00341029  RH  063%=      5-min Rain = 0
KCR1 250552Z 02007KT 03/M03 A3023 RMK A01 T00341029  RH  063%=      5-min Rain = 0
KCR1 250553Z 02007KT 03/M03 A3023 RMK A01 T00341029  RH  064%=      5-min Rain = 0
KCR1 250554Z 02007KT 03/M03 A3023 RMK A01 T00331029  RH  064%=      5-min Rain = 0
KCR1 250555Z 02007KT 03/M03 A3023 RMK A01 T00321029  RH  064%=      5-min Rain = 0
KCR1 250556Z 01008KT 03/M03 A3023 RMK A01 T00311029  RH  065%=      5-min Rain = 0
KCR1 250557Z 01007KT 03/M03 A3023 RMK A01 T00301029  RH  065%=      5-min Rain = 0
KCR1 250558Z 01008KT 03/M03 A3023 RMK A01 T00301029  RH  065%=      5-min Rain = 0
KCR1 250559Z 01008KT 03/M03 A3023 RMK A01 T00301028  RH  065%=      5-min Rain = 0

Page generated in 0.1107 seconds.